Wetterdaten: Dienstag, 31.08.2021
Datum Zeit Temp. Aussen Temp. o. S. Temp +5cm Feuchte Auss Luftdruck Regen Sonnenschein Regendauer Solar Windben Empfang
31.08.2021 00:00 16,2 C 15,0 C 14,5 C 88 % 1021,7 hPa 0,0 l/m 0 min 0 min 0 W/m 9,7 km/h (2 Bft) 97,87 %
31.08.2021 00:02 16,2 C 15,0 C 14,5 C 88 % 1021,7 hPa 0,0 l/m 0 min 0 min 0 W/m 9,7 km/h (2 Bft) 97,56 %
31.08.2021 00:04 16,1 C 15,0 C 14,5 C 88 % 1021,7 hPa 0,0 l/m 0 min 0 min 0 W/m 9,7 km/h (2 Bft) 97,87 %
31.08.2021 00:08 16,1 C 15,0 C 14,5 C 89 % 1021,7 hPa 0,0 l/m 0 min 0 min 0 W/m 9,7 km/h (2 Bft) 94,62 %
31.08.2021 00:10 16,1 C 15,0 C 14,5 C 89 % 1021,7 hPa 0,0 l/m 0 min 0 min 0 W/m 9,7 km/h (2 Bft) 100,00 %
31.08.2021 00:12 16,1 C 15,0 C 14,5 C 89 % 1021,7 hPa 0,0 l/m 0 min 0 min 0 W/m 9,7 km/h (2 Bft) 100,00 %
31.08.2021 00:14 16,1 C 15,0 C 14,5 C 89 % 1021,7 hPa 0,0 l/m 0 min 0 min 0 W/m 12,9 km/h (3 Bft) 95,74 %
31.08.2021 00:16 16,0 C 15,0 C 14,5 C 89 % 1021,7 hPa 0,0 l/m 0 min 0 min 0 W/m 6,4 km/h (2 Bft) 93,62 %
31.08.2021 00:18 16,0 C 15,0 C 14,5 C 89 % 1021,8 hPa 0,0 l/m 0 min 0 min 0 W/m 3,2 km/h (1 Bft) 97,87 %
31.08.2021 00:20 16,0 C 15,0 C 14,5 C 89 % 1021,7 hPa 0,0 l/m 0 min 0 min 0 W/m 6,4 km/h (2 Bft) 97,83 %
31.08.2021 00:22 16,0 C 15,0 C 13,9 C 89 % 1021,8 hPa 0,0 l/m 0 min 0 min 0 W/m 3,2 km/h (1 Bft) 97,87 %
31.08.2021 00:24 15,9 C 15,0 C 13,9 C 89 % 1021,8 hPa 0,0 l/m 0 min 0 min 0 W/m 6,4 km/h (2 Bft) 95,74 %
31.08.2021 00:26 15,9 C 15,0 C 13,9 C 89 % 1021,9 hPa 0,0 l/m 0 min 0 min 0 W/m 6,4 km/h (2 Bft) 97,87 %
31.08.2021 00:28 15,9 C 15,0 C 13,9 C 89 % 1021,9 hPa 0,0 l/m 0 min 0 min 0 W/m 6,4 km/h (2 Bft) 97,87 %
31.08.2021 00:30 15,9 C 15,0 C 13,9 C 89 % 1021,9 hPa 0,0 l/m 0 min 0 min 0 W/m 3,2 km/h (1 Bft) 97,87 %
31.08.2021 00:32 15,8 C 15,0 C 13,9 C 89 % 1021,9 hPa 0,0 l/m 0 min 0 min 0 W/m 3,2 km/h (1 Bft) 98,08 %
31.08.2021 00:34 15,8 C 14,4 C 13,9 C 89 % 1021,9 hPa 0,0 l/m 0 min 0 min 0 W/m 6,4 km/h (2 Bft) 97,87 %
31.08.2021 00:36 15,8 C 14,4 C 13,9 C 89 % 1021,9 hPa 0,0 l/m 0 min 0 min 0 W/m 3,2 km/h (1 Bft) 97,87 %
31.08.2021 00:38 15,8 C 14,4 C 13,9 C 89 % 1022,0 hPa 0,0 l/m 0 min 0 min 0 W/m 6,4 km/h (2 Bft) 97,87 %
31.08.2021 00:40 15,7 C 14,4 C 13,9 C 90 % 1022,0 hPa 0,0 l/m 0 min 0 min 0 W/m 6,4 km/h (2 Bft) 97,87 %
31.08.2021 00:42 15,6 C 14,4 C 13,9 C 90 % 1022,0 hPa 0,0 l/m 0 min 0 min 0 W/m 6,4 km/h (2 Bft) 97,56 %
31.08.2021 00:44 15,6 C 14,4 C 13,9 C 90 % 1022,0 hPa 0,0 l/m 0 min 0 min 0 W/m 6,4 km/h (2 Bft) 97,83 %
31.08.2021 00:46 15,6 C 14,4 C 13,9 C 90 % 1022,0 hPa 0,0 l/m 0 min 0 min 0 W/m 3,2 km/h (1 Bft) 100,00 %
31.08.2021 00:48 15,6 C 14,4 C 13,9 C 90 % 1022,0 hPa 0,0 l/m 0 min 0 min 0 W/m 3,2 km/h (1 Bft) 100,00 %
31.08.2021 00:50 15,5 C 14,4 C 13,9 C 90 % 1022,0 hPa 0,0 l/m 0 min 0 min 0 W/m 3,2 km/h (1 Bft) 100,00 %
31.08.2021 00:52 15,5 C 14,4 C 13,9 C 90 % 1022,0 hPa 0,0 l/m 0 min 0 min 0 W/m 3,2 km/h (1 Bft) 100,00 %
31.08.2021 00:54 15,5 C 14,4 C 13,9 C 90 % 1022,0 hPa 0,0 l/m 0 min 0 min 0 W/m 3,2 km/h (1 Bft) 97,87 %
31.08.2021 00:56 15,5 C 14,4 C 13,9 C 90 % 1022,0 hPa 0,0 l/m 0 min 0 min 0 W/m 3,2 km/h (1 Bft) 97,87 %
31.08.2021 00:58 15,5 C 14,4 C 13,9 C 90 % 1022,1 hPa 0,0 l/m 0 min 0 min 0 W/m 0,0 km/h (0 Bft) 97,87 %
31.08.2021 01:00 15,5 C 14,4 C 13,9 C 90 % 1022,1 hPa 0,0 l/m 0 min 0 min 0 W/m 3,2 km/h (1 Bft) 100,00 %
31.08.2021 01:02 15,4 C 14,4 C 13,4 C 90 % 1022,1 hPa 0,0 l/m 0 min 0 min 0 W/m 3,2 km/h (1 Bft) 100,00 %
31.08.2021 01:04 15,4 C 14,4 C 13,4 C 90 % 1022,1 hPa 0,0 l/m 0 min 0 min 0 W/m 3,2 km/h (1 Bft) 97,87 %
31.08.2021 01:06 15,4 C 14,4 C 13,4 C 91 % 1022,1 hPa 0,0 l/m 0 min 0 min 0 W/m 6,4 km/h (2 Bft) 100,00 %
31.08.2021 01:08 15,4 C 14,4 C 13,4 C 91 % 1022,1 hPa 0,0 l/m 0 min 0 min 0 W/m 6,4 km/h (2 Bft) 100,00 %
31.08.2021 01:10 15,3 C 14,4 C 13,4 C 91 % 1022,1 hPa 0,0 l/m 0 min 0 min 0 W/m 3,2 km/h (1 Bft) 100,00 %
31.08.2021 01:12 15,3 C 14,4 C 13,4 C 91 % 1022,2 hPa 0,0 l/m 0 min 0 min 0 W/m 6,4 km/h (2 Bft) 97,87 %
31.08.2021 01:14 15,3 C 14,4 C 13,4 C 91 % 1022,2 hPa 0,0 l/m 0 min 0 min 0 W/m 3,2 km/h (1 Bft) 97,87 %
31.08.2021 01:16 15,3 C 14,4 C 13,4 C 91 % 1022,1 hPa 0,0 l/m 0 min 0 min 0 W/m 0,0 km/h (0 Bft) 95,65 %
31.08.2021 01:18 15,2 C 13,9 C 13,4 C 91 % 1022,2 hPa 0,0 l/m 0 min 0 min 0 W/m 3,2 km/h (1 Bft) 100,00 %
31.08.2021 01:20 15,2 C 13,9 C 13,4 C 91 % 1022,2 hPa 0,0 l/m 0 min 0 min 0 W/m 9,7 km/h (2 Bft) 100,00 %
31.08.2021 01:22 15,1 C 13,9 C 13,4 C 91 % 1022,2 hPa 0,0 l/m 0 min 0 min 0 W/m 6,4 km/h (2 Bft) 100,00 %
31.08.2021 01:24 15,1 C 13,9 C 13,4 C 91 % 1022,2 hPa 0,0 l/m 0 min 0 min 0 W/m 6,4 km/h (2 Bft) 97,87 %
31.08.2021 01:26 15,1 C 13,9 C 13,4 C 91 % 1022,2 hPa 0,0 l/m 0 min 0 min 0 W/m 3,2 km/h (1 Bft) 100,00 %
31.08.2021 01:28 15,1 C 13,9 C 13,4 C 92 % 1022,3 hPa 0,0 l/m 0 min 0 min 0 W/m 6,4 km/h (2 Bft) 97,83 %
31.08.2021 01:30 15,1 C 13,9 C 13,4 C 92 % 1022,3 hPa 0,0 l/m 0 min 0 min 0 W/m 6,4 km/h (2 Bft) 95,74 %
31.08.2021 01:32 15,0 C 13,9 C 13,4 C 92 % 1022,3 hPa 0,0 l/m 0 min 0 min 0 W/m 6,4 km/h (2 Bft) 97,87 %
31.08.2021 01:34 15,0 C 13,9 C 13,4 C 92 % 1022,3 hPa 0,0 l/m 0 min 0 min 0 W/m 3,2 km/h (1 Bft) 97,87 %
31.08.2021 01:36 15,0 C 13,9 C 13,4 C 92 % 1022,4 hPa 0,0 l/m 0 min 0 min 0 W/m 12,9 km/h (3 Bft) 97,87 %
31.08.2021 01:38 15,0 C 13,9 C 13,4 C 92 % 1022,4 hPa 0,0 l/m 0 min 0 min 0 W/m 3,2 km/h (1 Bft) 97,87 %
31.08.2021 01:40 15,0 C 13,9 C 13,4 C 92 % 1022,4 hPa 0,0 l/m 0 min 0 min 0 W/m 3,2 km/h (1 Bft) 97,83 %
31.08.2021 01:42 15,0 C 13,9 C 13,4 C 92 % 1022,4 hPa 0,0 l/m 0 min 0 min 0 W/m 3,2 km/h (1 Bft) 97,87 %
31.08.2021 01:44 14,9 C 13,9 C 13,4 C 92 % 1022,4 hPa 0,0 l/m 0 min 0 min 0 W/m 6,4 km/h (2 Bft) 97,56 %
31.08.2021 01:46 14,9 C 13,9 C 13,4 C 92 % 1022,4 hPa 0,0 l/m 0 min 0 min 0 W/m 3,2 km/h (1 Bft) 97,87 %
31.08.2021 01:48 14,9 C 13,9 C 13,4 C 92 % 1022,4 hPa 0,0 l/m 0 min 0 min 0 W/m 6,4 km/h (2 Bft) 97,87 %
31.08.2021 01:50 14,9 C 13,9 C 13,4 C 92 % 1022,4 hPa 0,0 l/m 0 min 0 min 0 W/m 6,4 km/h (2 Bft) 97,87 %
31.08.2021 01:52 14,9 C 13,9 C 13,4 C 92 % 1022,4 hPa 0,0 l/m 0 min 0 min 0 W/m 6,4 km/h (2 Bft) 97,87 %
31.08.2021 01:54 14,8 C 13,9 C 13,4 C 92 % 1022,4 hPa 0,0 l/m 0 min 0 min 0 W/m 0,0 km/h (0 Bft) 97,83 %
31.08.2021 01:56 14,8 C 13,9 C 13,4 C 92 % 1022,4 hPa 0,0 l/m 0 min 0 min 0 W/m 3,2 km/h (1 Bft) 97,87 %
31.08.2021 01:58 14,8 C 13,9 C 13,4 C 92 % 1022,4 hPa 0,0 l/m 0 min 0 min 0 W/m 6,4 km/h (2 Bft) 95,74 %
31.08.2021 02:00 14,8 C 13,9 C 13,4 C 92 % 1022,5 hPa 0,0 l/m 0 min 0 min 0 W/m 3,2 km/h (1 Bft) 97,87 %
31.08.2021 02:02 14,8 C 13,9 C 13,4 C 92 % 1022,5 hPa 0,0 l/m 0 min 0 min 0 W/m 3,2 km/h (1 Bft) 96,30 %
31.08.2021 02:04 14,8 C 13,9 C 13,4 C 92 % 1022,5 hPa 0,0 l/m 0 min 0 min 0 W/m 6,4 km/h (2 Bft) 95,65 %
31.08.2021 02:06 14,7 C 13,9 C 13,4 C 93 % 1022,5 hPa 0,0 l/m 0 min 0 min 0 W/m 0,0 km/h (0 Bft) 95,83 %
31.08.2021 02:08 14,7 C 13,3 C 13,4 C 92 % 1022,5 hPa 0,0 l/m 0 min 0 min 0 W/m 3,2 km/h (1 Bft) 97,83 %
31.08.2021 02:10 14,7 C 13,3 C 13,4 C 92 % 1022,5 hPa 0,0 l/m 0 min 0 min 0 W/m 0,0 km/h (0 Bft) 97,87 %
31.08.2021 02:12 14,6 C 13,3 C 13,4 C 92 % 1022,5 hPa 0,0 l/m 0 min 0 min 0 W/m 3,2 km/h (1 Bft) 93,62 %
31.08.2021 02:14 14,6 C 13,3 C 13,4 C 92 % 1022,5 hPa 0,0 l/m 0 min 0 min 0 W/m 3,2 km/h (1 Bft) 97,87 %
31.08.2021 02:16 14,6 C 13,3 C 13,4 C 93 % 1022,6 hPa 0,0 l/m 0 min 0 min 0 W/m 6,4 km/h (2 Bft) 97,83 %
31.08.2021 02:18 14,6 C 13,3 C 13,4 C 93 % 1022,6 hPa 0,0 l/m 0 min 0 min 0 W/m 3,2 km/h (1 Bft) 97,87 %
31.08.2021 02:20 14,5 C 13,3 C 13,4 C 93 % 1022,6 hPa 0,0 l/m 0 min 0 min 0 W/m 6,4 km/h (2 Bft) 97,87 %
31.08.2021 02:22 14,5 C 13,3 C 13,4 C 93 % 1022,6 hPa 0,0 l/m 0 min 0 min 0 W/m 3,2 km/h (1 Bft) 97,87 %
31.08.2021 02:24 14,5 C 13,3 C 13,4 C 93 % 1022,6 hPa 0,0 l/m 0 min 0 min 0 W/m 9,7 km/h (2 Bft) 95,74 %
31.08.2021 02:26 14,5 C 13,3 C 13,4 C 93 % 1022,6 hPa 0,0 l/m 0 min 0 min 0 W/m 6,4 km/h (2 Bft) 95,65 %
31.08.2021 02:28 14,5 C 13,3 C 13,4 C 93 % 1022,6 hPa 0,0 l/m 0 min 0 min 0 W/m 3,2 km/h (1 Bft) 95,74 %
31.08.2021 02:30 14,5 C 13,3 C 13,4 C 93 % 1022,6 hPa 0,0 l/m 0 min 0 min 0 W/m 6,4 km/h (2 Bft) 95,74 %
31.08.2021 02:32 14,5 C 13,9 C 13,4 C 93 % 1022,6 hPa 0,0 l/m 0 min 0 min 0 W/m 6,4 km/h (2 Bft) 97,22 %
31.08.2021 02:34 14,5 C 13,9 C 13,4 C 93 % 1022,7 hPa 0,0 l/m 0 min 0 min 0 W/m 3,2 km/h (1 Bft) 95,74 %
31.08.2021 02:36 14,5 C 13,3 C 13,4 C 93 % 1022,7 hPa 0,0 l/m 0 min 0 min 0 W/m 6,4 km/h (2 Bft) 97,87 %
31.08.2021 02:38 14,4 C 13,3 C 13,4 C 94 % 1022,7 hPa 0,0 l/m 0 min 0 min 0 W/m 3,2 km/h (1 Bft) 98,00 %
31.08.2021 02:40 14,4 C 13,3 C 13,4 C 93 % 1022,6 hPa 0,0 l/m 0 min 0 min 0 W/m 3,2 km/h (1 Bft) 97,87 %
31.08.2021 02:42 14,4 C 13,3 C 13,4 C 93 % 1022,7 hPa 0,0 l/m 0 min 0 min 0 W/m 9,7 km/h (2 Bft) 97,83 %
31.08.2021 02:44 14,4 C 13,3 C 13,4 C 94 % 1022,7 hPa 0,0 l/m 0 min 0 min 0 W/m 6,4 km/h (2 Bft) 95,74 %
31.08.2021 02:46 14,4 C 13,3 C 13,4 C 94 % 1022,7 hPa 0,0 l/m 0 min 0 min 0 W/m 6,4 km/h (2 Bft) 97,87 %
31.08.2021 02:48 14,4 C 13,3 C 13,4 C 94 % 1022,7 hPa 0,0 l/m 0 min 0 min 0 W/m 3,2 km/h (1 Bft) 97,87 %
31.08.2021 02:50 14,4 C 13,3 C 13,4 C 94 % 1022,8 hPa 0,0 l/m 0 min 0 min 0 W/m 3,2 km/h (1 Bft) 97,87 %
31.08.2021 02:52 14,4 C 13,3 C 13,4 C 94 % 1022,7 hPa 0,0 l/m 0 min 0 min 0 W/m 6,4 km/h (2 Bft) 97,87 %
31.08.2021 02:54 14,4 C 13,3 C 13,4 C 94 % 1022,8 hPa 0,0 l/m 0 min 0 min 0 W/m 3,2 km/h (1 Bft) 97,83 %
31.08.2021 02:56 14,4 C 13,3 C 13,4 C 94 % 1022,8 hPa 0,0 l/m 0 min 0 min 0 W/m 6,4 km/h (2 Bft) 97,87 %
31.08.2021 02:58 14,4 C 13,3 C 13,4 C 94 % 1022,8 hPa 0,0 l/m 0 min 0 min 0 W/m 6,4 km/h (2 Bft) 97,87 %
31.08.2021 03:00 14,3 C 13,3 C 13,4 C 94 % 1022,8 hPa 0,0 l/m 0 min 0 min 0 W/m 6,4 km/h (2 Bft) 95,74 %
31.08.2021 03:02 14,3 C 13,3 C 13,4 C 94 % 1022,8 hPa 0,0 l/m 0 min 0 min 0 W/m 6,4 km/h (2 Bft) 97,87 %
31.08.2021 03:04 14,3 C 13,3 C 13,4 C 94 % 1022,8 hPa 0,0 l/m 0 min 0 min 0 W/m 6,4 km/h (2 Bft) 97,83 %
31.08.2021 03:06 14,3 C 13,3 C 12,8 C 94 % 1022,8 hPa 0,0 l/m 0 min 0 min 0 W/m 3,2 km/h (1 Bft) 97,87 %
31.08.2021 03:08 14,2 C 13,3 C 13,4 C 94 % 1022,8 hPa 0,0 l/m 0 min 0 min 0 W/m 3,2 km/h (1 Bft) 97,87 %
31.08.2021 03:10 14,2 C 13,3 C 12,8 C 94 % 1022,8 hPa 0,0 l/m 0 min 0 min 0 W/m 6,4 km/h (2 Bft) 97,87 %
31.08.2021 03:12 14,2 C 13,3 C 12,8 C 94 % 1022,8 hPa 0,0 l/m 0 min 0 min 0 W/m 3,2 km/h (1 Bft) 97,87 %
31.08.2021 03:14 14,2 C 13,3 C 12,8 C 94 % 1022,8 hPa 0,0 l/m 0 min 0 min 0 W/m 3,2 km/h (1 Bft) 95,74 %
31.08.2021 03:16 14,2 C 13,3 C 12,8 C 94 % 1022,8 hPa 0,0 l/m 0 min 0 min 0 W/m 3,2 km/h (1 Bft) 97,83 %
31.08.2021 03:18 14,2 C 13,3 C 12,8 C 94 % 1022,8 hPa 0,0 l/m 0 min 0 min 0 W/m 3,2 km/h (1 Bft) 100,00 %
31.08.2021 03:20 14,2 C 12,8 C 12,8 C 94 % 1022,8 hPa 0,0 l/m 0 min 0 min 0 W/m 3,2 km/h (1 Bft) 100,00 %
31.08.2021 03:22 14,2 C 12,8 C 12,8 C 94 % 1022,8 hPa 0,0 l/m 0 min 0 min 0 W/m 6,4 km/h (2 Bft) 95,74 %
31.08.2021 03:24 14,2 C 12,8 C 12,8 C 94 % 1022,9 hPa 0,0 l/m 0 min 0 min 0 W/m 6,4 km/h (2 Bft) 100,00 %
31.08.2021 03:26 14,1 C 12,8 C 12,8 C 94 % 1022,9 hPa 0,0 l/m 0 min 0 min 0 W/m 6,4 km/h (2 Bft) 97,87 %
31.08.2021 03:28 14,1 C 12,8 C 12,8 C 94 % 1022,9 hPa 0,0 l/m 0 min 0 min 0 W/m 3,2 km/h (1 Bft) 97,83 %
31.08.2021 03:30 14,1 C 12,8 C 12,8 C 94 % 1022,9 hPa 0,0 l/m 0 min 0 min 0 W/m 3,2 km/h (1 Bft) 97,87 %
31.08.2021 03:32 14,1 C 12,8 C 12,8 C 94 % 1022,9 hPa 0,0 l/m 0 min 0 min 0 W/m 3,2 km/h (1 Bft) 97,92 %
31.08.2021 03:34 14,1 C 12,8 C 12,8 C 94 % 1022,9 hPa 0,0 l/m 0 min 0 min 0 W/m 3,2 km/h (1 Bft) 100,00 %
31.08.2021 03:36 14,1 C 12,8 C 12,8 C 94 % 1023,0 hPa 0,0 l/m 0 min 0 min 0 W/m 6,4 km/h (2 Bft) 100,00 %
31.08.2021 03:38 14,1 C 12,8 C 12,8 C 95 % 1023,0 hPa 0,0 l/m 0 min 0 min 0 W/m 6,4 km/h (2 Bft) 97,87 %
31.08.2021 03:40 14,1 C 12,8 C 12,8 C 95 % 1022,9 hPa 0,0 l/m 0 min 0 min 0 W/m 3,2 km/h (1 Bft) 100,00 %
31.08.2021 03:42 14,1 C 12,8 C 12,8 C 95 % 1022,9 hPa 0,0 l/m 0 min 0 min 0 W/m 6,4 km/h (2 Bft) 95,74 %
31.08.2021 03:44 14,1 C 12,8 C 12,8 C 95 % 1022,9 hPa 0,0 l/m 0 min 0 min 0 W/m 6,4 km/h (2 Bft) 95,74 %
31.08.2021 03:46 14,1 C 12,8 C 12,8 C 95 % 1023,0 hPa 0,0 l/m 0 min 0 min 0 W/m 3,2 km/h (1 Bft) 97,87 %
31.08.2021 03:48 14,0 C 12,8 C 12,8 C 95 % 1023,0 hPa 0,0 l/m 0 min 0 min 0 W/m 3,2 km/h (1 Bft) 100,00 %
31.08.2021 03:50 14,0 C 12,8 C 12,8 C 95 % 1023,0 hPa 0,0 l/m 0 min 0 min 0 W/m 3,2 km/h (1 Bft) 97,87 %
31.08.2021 03:52 14,0 C 12,8 C 12,8 C 95 % 1023,0 hPa 0,0 l/m 0 min 0 min 0 W/m 6,4 km/h (2 Bft) 97,83 %
31.08.2021 03:54 14,0 C 12,8 C 12,8 C 95 % 1023,0 hPa 0,0 l/m 0 min 0 min 0 W/m 3,2 km/h (1 Bft) 95,74 %
31.08.2021 03:56 14,0 C 12,8 C 12,8 C 95 % 1023,0 hPa 0,0 l/m 0 min 0 min 0 W/m 3,2 km/h (1 Bft) 93,62 %
31.08.2021 03:58 14,0 C 12,8 C 12,8 C 95 % 1023,0 hPa 0,0 l/m 0 min 0 min 0 W/m 3,2 km/h (1 Bft) 95,74 %
31.08.2021 04:00 13,9 C 12,8 C 12,8 C 95 % 1023,0 hPa 0,0 l/m 0 min 0 min 0 W/m 6,4 km/h (2 Bft) 95,74 %
31.08.2021 04:02 13,9 C 12,8 C 12,8 C 95 % 1023,1 hPa 0,0 l/m 0 min 0 min 0 W/m 6,4 km/h (2 Bft) 100,00 %
31.08.2021 04:04 13,9 C 12,8 C 12,8 C 95 % 1023,0 hPa 0,0 l/m 0 min 0 min 0 W/m 9,7 km/h (2 Bft) 95,65 %
31.08.2021 04:06 13,9 C 12,8 C 12,8 C 95 % 1023,0 hPa 0,0 l/m 0 min 0 min 0 W/m 6,4 km/h (2 Bft) 95,74 %
31.08.2021 04:08 13,9 C 12,8 C 12,8 C 95 % 1023,1 hPa 0,0 l/m 0 min 0 min 0 W/m 3,2 km/h (1 Bft) 95,74 %
31.08.2021 04:10 13,8 C 12,8 C 12,8 C 95 % 1023,1 hPa 0,0 l/m 0 min 0 min 0 W/m 6,4 km/h (2 Bft) 96,23 %
31.08.2021 04:12 13,8 C 12,8 C 12,8 C 95 % 1023,1 hPa 0,0 l/m 0 min 0 min 0 W/m 3,2 km/h (1 Bft) 95,65 %
31.08.2021 04:14 13,8 C 12,8 C 12,8 C 95 % 1023,1 hPa 0,0 l/m 0 min 0 min 0 W/m 3,2 km/h (1 Bft) 95,74 %
31.08.2021 04:16 13,8 C 12,8 C 12,8 C 95 % 1023,2 hPa 0,0 l/m 0 min 0 min 0 W/m 3,2 km/h (1 Bft) 93,62 %
31.08.2021 04:18 13,8 C 12,8 C 12,8 C 95 % 1023,2 hPa 0,0 l/m 0 min 0 min 0 W/m 0,0 km/h (0 Bft) 95,74 %
31.08.2021 04:20 13,8 C 12,8 C 12,8 C 95 % 1023,2 hPa 0,0 l/m 0 min 0 min 0 W/m 3,2 km/h (1 Bft) 95,74 %
31.08.2021 04:22 13,7 C 12,8 C 12,8 C 95 % 1023,2 hPa 0,0 l/m 0 min 0 min 0 W/m 3,2 km/h (1 Bft) 95,74 %
31.08.2021 04:24 13,7 C 12,8 C 12,8 C 95 % 1023,3 hPa 0,0 l/m 0 min 0 min 0 W/m 0,0 km/h (0 Bft) 97,83 %
31.08.2021 04:26 13,7 C 12,8 C 12,8 C 95 % 1023,3 hPa 0,0 l/m 0 min 0 min 0 W/m 3,2 km/h (1 Bft) 97,87 %
31.08.2021 04:28 13,6 C 12,8 C 12,3 C 95 % 1023,3 hPa 0,0 l/m 0 min 0 min 0 W/m 3,2 km/h (1 Bft) 97,87 %
31.08.2021 04:30 13,6 C 12,8 C 12,3 C 95 % 1023,3 hPa 0,0 l/m 0 min 0 min 0 W/m 3,2 km/h (1 Bft) 95,74 %
31.08.2021 04:32 13,6 C 12,8 C 12,3 C 95 % 1023,3 hPa 0,0 l/m 0 min 0 min 0 W/m 3,2 km/h (1 Bft) 97,92 %
31.08.2021 04:34 13,6 C 12,8 C 12,3 C 95 % 1023,2 hPa 0,0 l/m 0 min 0 min 0 W/m 3,2 km/h (1 Bft) 97,87 %
31.08.2021 04:36 13,6 C 12,8 C 12,3 C 95 % 1023,2 hPa 0,0 l/m 0 min 0 min 0 W/m 3,2 km/h (1 Bft) 97,83 %
31.08.2021 04:38 13,5 C 12,8 C 12,3 C 95 % 1023,2 hPa 0,0 l/m 0 min 0 min 0 W/m 3,2 km/h (1 Bft) 100,00 %
31.08.2021 04:40 13,5 C 12,8 C 12,8 C 95 % 1023,2 hPa 0,0 l/m 0 min 0 min 0 W/m 6,4 km/h (2 Bft) 100,00 %
31.08.2021 04:42 13,5 C 12,8 C 12,8 C 95 % 1023,2 hPa 0,0 l/m 0 min 0 min 0 W/m 3,2 km/h (1 Bft) 100,00 %
31.08.2021 04:44 13,5 C 12,8 C 12,8 C 95 % 1023,2 hPa 0,0 l/m 0 min 0 min 0 W/m 3,2 km/h (1 Bft) 100,00 %
31.08.2021 04:46 13,5 C 12,8 C 12,8 C 95 % 1023,2 hPa 0,0 l/m 0 min 0 min 0 W/m 6,4 km/h (2 Bft) 100,00 %
31.08.2021 04:48 13,5 C 12,8 C 12,8 C 95 % 1023,2 hPa 0,0 l/m 0 min 0 min 0 W/m 9,7 km/h (2 Bft) 100,00 %
31.08.2021 04:50 13,5 C 12,8 C 12,8 C 95 % 1023,2 hPa 0,0 l/m 0 min 0 min 0 W/m 6,4 km/h (2 Bft) 100,00 %
31.08.2021 04:52 13,5 C 12,8 C 12,8 C 95 % 1023,2 hPa 0,0 l/m 0 min 0 min 0 W/m 6,4 km/h (2 Bft) 100,00 %
31.08.2021 04:54 13,5 C 12,8 C 12,8 C 95 % 1023,2 hPa 0,0 l/m 0 min 0 min 0 W/m 6,4 km/h (2 Bft) 97,87 %
31.08.2021 04:56 13,6 C 12,8 C 12,8 C 95 % 1023,2 hPa 0,0 l/m 0 min 0 min 0 W/m 6,4 km/h (2 Bft) 100,00 %
31.08.2021 04:58 13,6 C 12,8 C 12,8 C 96 % 1023,1 hPa 0,0 l/m 0 min 0 min 0 W/m 3,2 km/h (1 Bft) 100,00 %
31.08.2021 05:00 13,6 C 12,8 C 12,8 C 96 % 1023,2 hPa 0,0 l/m 0 min 0 min 0 W/m 3,2 km/h (1 Bft) 100,00 %
31.08.2021 05:02 13,6 C 12,8 C 12,8 C 96 % 1023,1 hPa 0,0 l/m 0 min 0 min 0 W/m 3,2 km/h (1 Bft) 100,00 %
31.08.2021 05:04 13,6 C 12,8 C 12,8 C 96 % 1023,2 hPa 0,0 l/m 0 min 0 min 0 W/m 3,2 km/h (1 Bft) 100,00 %
31.08.2021 05:06 13,6 C 12,8 C 12,8 C 96 % 1023,2 hPa 0,0 l/m 0 min 0 min 0 W/m 3,2 km/h (1 Bft) 100,00 %
31.08.2021 05:08 13,5 C 12,8 C 12,8 C 96 % 1023,2 hPa 0,0 l/m 0 min 0 min 0 W/m 6,4 km/h (2 Bft) 100,00 %
31.08.2021 05:10 13,5 C 12,8 C 12,8 C 96 % 1023,2 hPa 0,0 l/m 0 min 0 min 0 W/m 3,2 km/h (1 Bft) 100,00 %
31.08.2021 05:12 13,5 C 12,8 C 12,8 C 96 % 1023,3 hPa 0,0 l/m 0 min 0 min 0 W/m 0,0 km/h (0 Bft) 100,00 %
31.08.2021 05:14 13,5 C 12,8 C 12,8 C 96 % 1023,2 hPa 0,0 l/m 0 min 0 min 0 W/m 6,4 km/h (2 Bft) 100,00 %
31.08.2021 05:16 13,5 C 12,8 C 12,8 C 96 % 1023,3 hPa 0,0 l/m 0 min 0 min 0 W/m 6,4 km/h (2 Bft) 100,00 %
31.08.2021 05:18 13,5 C 12,8 C 12,8 C 96 % 1023,2 hPa 0,0 l/m 0 min 0 min 0 W/m 12,9 km/h (3 Bft) 100,00 %
31.08.2021 05:20 13,5 C 12,8 C 12,8 C 96 % 1023,2 hPa 0,0 l/m 0 min 0 min 0 W/m 6,4 km/h (2 Bft) 100,00 %
31.08.2021 05:22 13,5 C 12,8 C 12,8 C 96 % 1023,2 hPa 0,0 l/m 0 min 0 min 0 W/m 6,4 km/h (2 Bft) 100,00 %
31.08.2021 05:24 13,5 C 12,8 C 12,8 C 96 % 1023,2 hPa 0,0 l/m 0 min 0 min 0 W/m 9,7 km/h (2 Bft) 97,87 %
31.08.2021 05:26 13,5 C 12,8 C 12,8 C 96 % 1023,2 hPa 0,0 l/m 0 min 0 min 0 W/m 6,4 km/h (2 Bft) 97,83 %
31.08.2021 05:28 13,5 C 12,8 C 12,8 C 96 % 1023,2 hPa 0,0 l/m 0 min 0 min 0 W/m 9,7 km/h (2 Bft) 100,00 %
31.08.2021 05:30 13,5 C 12,8 C 12,8 C 96 % 1023,2 hPa 0,0 l/m 0 min 0 min 0 W/m 9,7 km/h (2 Bft) 100,00 %
31.08.2021 05:32 13,5 C 12,8 C 12,8 C 96 % 1023,2 hPa 0,0 l/m 0 min 0 min 0 W/m 9,7 km/h (2 Bft) 97,92 %
31.08.2021 05:34 13,6 C 12,8 C 12,8 C 96 % 1023,2 hPa 0,0 l/m 0 min 0 min 0 W/m 9,7 km/h (2 Bft) 95,74 %
31.08.2021 05:36 13,6 C 12,8 C 12,8 C 96 % 1023,2 hPa 0,0 l/m 0 min 0 min 0 W/m 6,4 km/h (2 Bft) 97,87 %
31.08.2021 05:38 13,6 C 12,8 C 12,8 C 96 % 1023,2 hPa 0,0 l/m 0 min 0 min 0 W/m 6,4 km/h (2 Bft) 95,92 %
31.08.2021 05:40 13,6 C 12,8 C 12,8 C 96 % 1023,2 hPa 0,0 l/m 0 min 0 min 0 W/m 6,4 km/h (2 Bft) 97,87 %
31.08.2021 05:42 13,6 C 12,8 C 12,8 C 96 % 1023,2 hPa 0,0 l/m 0 min 0 min 0 W/m 9,7 km/h (2 Bft) 95,74 %
31.08.2021 05:44 13,6 C 12,8 C 12,8 C 96 % 1023,2 hPa 0,0 l/m 0 min 0 min 0 W/m 9,7 km/h (2 Bft) 95,74 %
31.08.2021 05:46 13,6 C 12,8 C 12,8 C 96 % 1023,2 hPa 0,0 l/m 0 min 0 min 0 W/m 9,7 km/h (2 Bft) 93,62 %
31.08.2021 05:48 13,6 C 12,8 C 12,8 C 96 % 1023,3 hPa 0,0 l/m 0 min 0 min 0 W/m 9,7 km/h (2 Bft) 95,65 %
31.08.2021 05:50 13,6 C 12,8 C 12,8 C 96 % 1023,3 hPa 0,0 l/m 0 min 0 min 0 W/m 9,7 km/h (2 Bft) 95,74 %
31.08.2021 05:52 13,6 C 12,8 C 12,8 C 96 % 1023,3 hPa 0,0 l/m 0 min 0 min 0 W/m 9,7 km/h (2 Bft) 95,74 %
31.08.2021 05:54 13,6 C 12,8 C 12,8 C 97 % 1023,3 hPa 0,0 l/m 0 min 0 min 0 W/m 6,4 km/h (2 Bft) 93,62 %
31.08.2021 05:56 13,6 C 12,8 C 12,8 C 97 % 1023,4 hPa 0,0 l/m 0 min 0 min 0 W/m 6,4 km/h (2 Bft) 93,62 %
31.08.2021 05:58 13,7 C 12,8 C 12,8 C 97 % 1023,4 hPa 0,0 l/m 0 min 0 min 0 W/m 9,7 km/h (2 Bft) 95,74 %
31.08.2021 06:00 13,6 C 12,8 C 12,8 C 97 % 1023,4 hPa 0,0 l/m 0 min 0 min 0 W/m 9,7 km/h (2 Bft) 95,65 %
31.08.2021 06:02 13,7 C 12,8 C 12,8 C 97 % 1023,4 hPa 0,0 l/m 0 min 0 min 0 W/m 9,7 km/h (2 Bft) 95,74 %
31.08.2021 06:04 13,7 C 12,8 C 12,8 C 97 % 1023,4 hPa 0,0 l/m 0 min 0 min 0 W/m 6,4 km/h (2 Bft) 95,74 %
31.08.2021 06:08 13,7 C 12,8 C 13,4 C 97 % 1023,4 hPa 0,0 l/m 0 min 0 min 0 W/m 9,7 km/h (2 Bft) 94,68 %
31.08.2021 06:10 13,8 C 12,8 C 13,4 C 97 % 1023,4 hPa 0,0 l/m 0 min 0 min 0 W/m 9,7 km/h (2 Bft) 95,65 %
31.08.2021 06:12 13,8 C 12,8 C 13,4 C 97 % 1023,5 hPa 0,0 l/m 0 min 0 min 0 W/m 3,2 km/h (1 Bft) 93,62 %
31.08.2021 06:14 13,8 C 12,8 C 13,4 C 97 % 1023,5 hPa 0,0 l/m 0 min 0 min 0 W/m 0,0 km/h (0 Bft) 95,74 %
31.08.2021 06:16 13,8 C 13,3 C 13,4 C 97 % 1023,5 hPa 0,0 l/m 0 min 0 min 0 W/m 3,2 km/h (1 Bft) 97,87 %
31.08.2021 06:18 13,8 C 13,3 C 13,4 C 97 % 1023,6 hPa 0,0 l/m 0 min 0 min 0 W/m 9,7 km/h (2 Bft) 95,74 %
31.08.2021 06:20 13,8 C 13,3 C 13,4 C 97 % 1023,6 hPa 0,0 l/m 0 min 0 min 0 W/m 6,4 km/h (2 Bft) 97,87 %
31.08.2021 06:22 13,8 C 13,3 C 13,4 C 97 % 1023,6 hPa 0,0 l/m 0 min 0 min 0 W/m 3,2 km/h (1 Bft) 97,83 %
31.08.2021 06:24 13,8 C 13,3 C 13,4 C 97 % 1023,6 hPa 0,0 l/m 0 min 0 min 0 W/m 6,4 km/h (2 Bft) 97,87 %
31.08.2021 06:26 13,9 C 13,3 C 13,4 C 97 % 1023,6 hPa 0,0 l/m 0 min 0 min 0 W/m 3,2 km/h (1 Bft) 97,87 %
31.08.2021 06:28 13,9 C 13,3 C 13,4 C 97 % 1023,7 hPa 0,0 l/m 0 min 0 min 0 W/m 6,4 km/h (2 Bft) 97,87 %
31.08.2021 06:30 13,9 C 13,3 C 13,4 C 97 % 1023,7 hPa 0,0 l/m 0 min 0 min 0 W/m 6,4 km/h (2 Bft) 95,74 %
31.08.2021 06:32 13,9 C 13,3 C 13,4 C 97 % 1023,8 hPa 0,0 l/m 0 min 0 min 0 W/m 3,2 km/h (1 Bft) 97,87 %
31.08.2021 06:34 13,9 C 13,3 C 13,4 C 97 % 1023,8 hPa 0,0 l/m 0 min 0 min 0 W/m 3,2 km/h (1 Bft) 91,30 %
31.08.2021 06:36 13,9 C 13,3 C 13,4 C 97 % 1023,8 hPa 0,0 l/m 0 min 0 min 0 W/m 3,2 km/h (1 Bft) 97,87 %
31.08.2021 06:38 13,9 C 13,3 C 13,4 C 97 % 1023,9 hPa 0,0 l/m 0 min 0 min 0 W/m 3,2 km/h (1 Bft) 95,74 %
31.08.2021 06:40 13,9 C 13,3 C 13,4 C 97 % 1023,8 hPa 0,0 l/m 0 min 0 min 0 W/m 3,2 km/h (1 Bft) 95,74 %
31.08.2021 06:42 13,9 C 13,3 C 13,4 C 97 % 1023,9 hPa 0,0 l/m 0 min 0 min 0 W/m 12,9 km/h (3 Bft) 95,74 %
31.08.2021 06:44 13,9 C 13,3 C 13,4 C 97 % 1023,9 hPa 0,0 l/m 0 min 0 min 0 W/m 9,7 km/h (2 Bft) 97,87 %
31.08.2021 06:46 13,9 C 13,3 C 13,4 C 97 % 1023,9 hPa 0,0 l/m 0 min 0 min 0 W/m 12,9 km/h (3 Bft) 95,65 %
31.08.2021 06:48 13,9 C 13,3 C 13,4 C 97 % 1024,0 hPa 0,0 l/m 0 min 0 min 0 W/m 16,1 km/h (3 Bft) 97,87 %
31.08.2021 06:50 13,9 C 13,3 C 13,4 C 97 % 1023,9 hPa 0,0 l/m 0 min 0 min 0 W/m 6,4 km/h (2 Bft) 97,87 %
31.08.2021 06:52 13,9 C 13,3 C 13,4 C 97 % 1023,9 hPa 0,0 l/m 0 min 0 min 0 W/m 3,2 km/h (1 Bft) 95,74 %
31.08.2021 06:54 13,9 C 13,3 C 13,4 C 97 % 1023,9 hPa 0,0 l/m 0 min 0 min 0 W/m 6,4 km/h (2 Bft) 97,87 %
31.08.2021 06:56 14,0 C 13,3 C 13,4 C 97 % 1023,9 hPa 0,0 l/m 0 min 0 min 0 W/m 9,7 km/h (2 Bft) 97,87 %
31.08.2021 06:58 14,0 C 13,3 C 13,4 C 97 % 1023,9 hPa 0,0 l/m 0 min 0 min 0 W/m 6,4 km/h (2 Bft) 97,83 %
31.08.2021 07:00 13,9 C 13,3 C 13,4 C 97 % 1023,8 hPa 0,0 l/m 0 min 0 min 3 W/m 12,9 km/h (3 Bft) 95,74 %
31.08.2021 07:02 14,0 C 13,3 C 13,4 C 97 % 1023,9 hPa 0,0 l/m 0 min 0 min 5 W/m 12,9 km/h (3 Bft) 97,67 %
31.08.2021 07:04 14,0 C 13,3 C 13,4 C 97 % 1023,9 hPa 0,0 l/m 0 min 0 min 6 W/m 6,4 km/h (2 Bft) 97,87 %
31.08.2021 07:06 14,0 C 13,3 C 13,4 C 98 % 1023,9 hPa 0,0 l/m 0 min 0 min 5 W/m 3,2 km/h (1 Bft) 97,87 %
31.08.2021 07:08 14,0 C 13,3 C 13,4 C 98 % 1023,9 hPa 0,0 l/m 0 min 0 min 8 W/m 6,4 km/h (2 Bft) 100,00 %
31.08.2021 07:10 14,0 C 13,3 C 13,4 C 98 % 1024,0 hPa 0,0 l/m 0 min 0 min 9 W/m 9,7 km/h (2 Bft) 100,00 %
31.08.2021 07:12 14,0 C 13,3 C 13,4 C 98 % 1024,0 hPa 0,0 l/m 0 min 0 min 8 W/m 6,4 km/h (2 Bft) 100,00 %
31.08.2021 07:14 14,0 C 13,3 C 13,4 C 98 % 1024,0 hPa 0,0 l/m 0 min 0 min 9 W/m 16,1 km/h (3 Bft) 100,00 %
31.08.2021 07:16 13,9 C 13,3 C 13,4 C 98 % 1024,0 hPa 0,0 l/m 0 min 0 min 9 W/m 6,4 km/h (2 Bft) 100,00 %
31.08.2021 07:18 14,0 C 13,3 C 13,4 C 98 % 1024,0 hPa 0,0 l/m 0 min 0 min 9 W/m 12,9 km/h (3 Bft) 100,00 %
31.08.2021 07:20 14,0 C 13,3 C 13,4 C 98 % 1024,1 hPa 0,0 l/m 0 min 0 min 10 W/m 12,9 km/h (3 Bft) 97,87 %
31.08.2021 07:22 14,0 C 13,3 C 13,9 C 98 % 1024,1 hPa 0,0 l/m 0 min 0 min 11 W/m 9,7 km/h (2 Bft) 100,00 %
31.08.2021 07:24 14,0 C 13,3 C 13,9 C 98 % 1024,1 hPa 0,0 l/m 0 min 0 min 14 W/m 6,4 km/h (2 Bft) 100,00 %
31.08.2021 07:26 14,0 C 13,3 C 13,9 C 98 % 1024,1 hPa 0,0 l/m 0 min 0 min 19 W/m 12,9 km/h (3 Bft) 100,00 %
31.08.2021 07:28 14,0 C 13,3 C 13,9 C 98 % 1024,1 hPa 0,0 l/m 0 min 0 min 21 W/m 6,4 km/h (2 Bft) 97,87 %
31.08.2021 07:30 14,0 C 13,3 C 13,9 C 98 % 1024,1 hPa 0,0 l/m 0 min 0 min 19 W/m 9,7 km/h (2 Bft) 100,00 %
31.08.2021 07:32 14,0 C 13,9 C 13,9 C 98 % 1024,2 hPa 0,0 l/m 0 min 0 min 21 W/m 6,4 km/h (2 Bft) 100,00 %
31.08.2021 07:34 14,0 C 13,9 C 13,9 C 98 % 1024,2 hPa 0,0 l/m 0 min 0 min 20 W/m 12,9 km/h (3 Bft) 100,00 %
31.08.2021 07:36 14,0 C 13,9 C 13,9 C 98 % 1024,2 hPa 0,0 l/m 0 min 0 min 20 W/m 9,7 km/h (2 Bft) 100,00 %
31.08.2021 07:38 14,0 C 13,9 C 13,9 C 98 % 1024,3 hPa 0,0 l/m 0 min 0 min 18 W/m 6,4 km/h (2 Bft) 97,87 %
31.08.2021 07:40 14,0 C 13,9 C 13,9 C 98 % 1024,3 hPa 0,0 l/m 0 min 0 min 18 W/m 6,4 km/h (2 Bft) 95,74 %
31.08.2021 07:42 14,0 C 13,9 C 13,9 C 98 % 1024,3 hPa 0,0 l/m 0 min 0 min 19 W/m 9,7 km/h (2 Bft) 97,87 %
31.08.2021 07:44 14,0 C 13,9 C 13,9 C 98 % 1024,4 hPa 0,0 l/m 0 min 0 min 19 W/m 6,4 km/h (2 Bft) 97,87 %
31.08.2021 07:46 14,0 C 13,9 C 13,9 C 98 % 1024,4 hPa 0,0 l/m 0 min 0 min 21 W/m 6,4 km/h (2 Bft) 95,65 %
31.08.2021 07:48 14,0 C 13,9 C 13,9 C 98 % 1024,3 hPa 0,0 l/m 0 min 0 min 25 W/m 12,9 km/h (3 Bft) 95,74 %
31.08.2021 07:50 14,0 C 13,9 C 13,9 C 98 % 1024,4 hPa 0,0 l/m 0 min 0 min 18 W/m 12,9 km/h (3 Bft) 97,87 %
31.08.2021 07:52 14,0 C 13,9 C 13,9 C 98 % 1024,3 hPa 0,0 l/m 0 min 0 min 17 W/m 9,7 km/h (2 Bft) 97,87 %
31.08.2021 07:54 14,0 C 13,9 C 13,9 C 98 % 1024,4 hPa 0,0 l/m 0 min 0 min 18 W/m 16,1 km/h (3 Bft) 97,87 %
31.08.2021 07:56 14,0 C 13,9 C 13,9 C 98 % 1024,4 hPa 0,0 l/m 0 min 0 min 16 W/m 3,2 km/h (1 Bft) 97,83 %
31.08.2021 07:58 14,0 C 13,9 C 13,9 C 98 % 1024,5 hPa 0,0 l/m 0 min 0 min 14 W/m 3,2 km/h (1 Bft) 97,87 %
31.08.2021 08:00 14,1 C 13,9 C 13,9 C 98 % 1024,5 hPa 0,0 l/m 0 min 0 min 16 W/m 9,7 km/h (2 Bft) 93,62 %
31.08.2021 08:02 14,1 C 13,9 C 13,9 C 98 % 1024,5 hPa 0,0 l/m 0 min 0 min 20 W/m 9,7 km/h (2 Bft) 89,36 %
31.08.2021 08:04 14,1 C 13,9 C 13,9 C 98 % 1024,6 hPa 0,0 l/m 0 min 0 min 24 W/m 6,4 km/h (2 Bft) 85,11 %
31.08.2021 08:06 14,1 C 13,9 C 13,9 C 98 % 1024,5 hPa 0,0 l/m 0 min 0 min 27 W/m 6,4 km/h (2 Bft) 78,72 %
31.08.2021 08:08 14,1 C 13,9 C 13,9 C 98 % 1024,6 hPa 0,0 l/m 0 min 0 min 31 W/m 12,9 km/h (3 Bft) 84,78 %
31.08.2021 08:10 14,2 C 13,9 C 13,9 C 98 % 1024,5 hPa 0,0 l/m 0 min 0 min 28 W/m 12,9 km/h (3 Bft) 87,23 %
31.08.2021 08:12 14,1 C 13,9 C 13,9 C 98 % 1024,5 hPa 0,0 l/m 0 min 0 min 29 W/m 12,9 km/h (3 Bft) 95,74 %
31.08.2021 08:14 14,1 C 13,9 C 13,9 C 98 % 1024,5 hPa 0,0 l/m 0 min 0 min 37 W/m 6,4 km/h (2 Bft) 89,36 %
31.08.2021 08:16 14,1 C 13,9 C 13,9 C 98 % 1024,5 hPa 0,0 l/m 0 min 0 min 36 W/m 6,4 km/h (2 Bft) 97,87 %
31.08.2021 08:18 14,1 C 13,9 C 13,9 C 98 % 1024,6 hPa 0,0 l/m 0 min 0 min 42 W/m 12,9 km/h (3 Bft) 100,00 %
31.08.2021 08:20 14,1 C 13,9 C 13,9 C 98 % 1024,6 hPa 0,0 l/m 0 min 0 min 44 W/m 6,4 km/h (2 Bft) 100,00 %
31.08.2021 08:22 14,1 C 13,9 C 13,9 C 98 % 1024,6 hPa 0,0 l/m 0 min 0 min 35 W/m 12,9 km/h (3 Bft) 100,00 %
31.08.2021 08:24 14,1 C 13,9 C 13,9 C 98 % 1024,6 hPa 0,0 l/m 0 min 0 min 32 W/m 9,7 km/h (2 Bft) 100,00 %
31.08.2021 08:26 14,1 C 13,9 C 13,9 C 98 % 1024,6 hPa 0,0 l/m 0 min 0 min 31 W/m 12,9 km/h (3 Bft) 100,00 %
31.08.2021 08:28 14,1 C 13,9 C 13,9 C 98 % 1024,7 hPa 0,0 l/m 0 min 0 min 37 W/m 12,9 km/h (3 Bft) 100,00 %
31.08.2021 08:30 14,1 C 13,9 C 13,9 C 98 % 1024,7 hPa 0,0 l/m 0 min 0 min 46 W/m 19,3 km/h (3 Bft) 100,00 %
31.08.2021 08:32 14,1 C 13,9 C 13,9 C 98 % 1024,7 hPa 0,0 l/m 0 min 0 min 45 W/m 12,9 km/h (3 Bft) 97,87 %
31.08.2021 08:34 14,1 C 13,9 C 13,9 C 98 % 1024,8 hPa 0,0 l/m 0 min 0 min 34 W/m 9,7 km/h (2 Bft) 97,87 %
31.08.2021 08:36 14,1 C 13,9 C 13,9 C 97 % 1024,7 hPa 0,0 l/m 0 min 0 min 37 W/m 12,9 km/h (3 Bft) 97,87 %
31.08.2021 08:38 14,2 C 13,9 C 13,9 C 97 % 1024,8 hPa 0,0 l/m 0 min 0 min 49 W/m 16,1 km/h (3 Bft) 97,87 %
31.08.2021 08:40 14,1 C 13,9 C 13,9 C 97 % 1024,8 hPa 0,0 l/m 0 min 0 min 46 W/m 9,7 km/h (2 Bft) 97,87 %
31.08.2021 08:42 14,2 C 13,9 C 13,9 C 97 % 1024,8 hPa 0,0 l/m 0 min 0 min 38 W/m 9,7 km/h (2 Bft) 97,87 %
31.08.2021 08:44 14,2 C 13,9 C 13,9 C 98 % 1024,8 hPa 0,0 l/m 0 min 0 min 53 W/m 6,4 km/h (2 Bft) 97,83 %
31.08.2021 08:45 14,2 C 13,9 C 14,5 C 98 % 1024,8 hPa 0,0 l/m 0 min 0 min 75 W/m 6,4 km/h (2 Bft) 97,87 %
31.08.2021 08:48 14,2 C 13,9 C 14,5 C 98 % 1024,8 hPa 0,0 l/m 0 min 0 min 64 W/m 12,9 km/h (3 Bft) 93,62 %
31.08.2021 08:50 14,2 C 13,9 C 14,5 C 98 % 1024,9 hPa 0,0 l/m 0 min 0 min 56 W/m 16,1 km/h (3 Bft) 97,87 %
31.08.2021 08:52 14,2 C 13,9 C 14,5 C 98 % 1024,9 hPa 0,0 l/m 0 min 0 min 46 W/m 6,4 km/h (2 Bft) 97,87 %
31.08.2021 08:54 14,2 C 13,9 C 14,5 C 98 % 1024,9 hPa 0,0 l/m 0 min 0 min 58 W/m 12,9 km/h (3 Bft) 95,74 %
31.08.2021 08:56 14,2 C 13,9 C 14,5 C 98 % 1024,9 hPa 0,0 l/m 0 min 0 min 60 W/m 12,9 km/h (3 Bft) 97,83 %
31.08.2021 08:58 14,2 C 13,9 C 14,5 C 98 % 1024,9 hPa 0,0 l/m 0 min 0 min 55 W/m 9,7 km/h (2 Bft) 97,87 %
31.08.2021 09:00 14,2 C 13,9 C 14,5 C 98 % 1024,9 hPa 0,0 l/m 0 min 0 min 57 W/m 9,7 km/h (2 Bft) 93,62 %
31.08.2021 09:02 14,2 C 13,9 C 14,5 C 97 % 1024,9 hPa 0,0 l/m 0 min 0 min 60 W/m 16,1 km/h (3 Bft) 95,74 %
31.08.2021 09:04 14,2 C 13,9 C 13,9 C 97 % 1024,9 hPa 0,0 l/m 0 min 0 min 62 W/m 12,9 km/h (3 Bft) 93,62 %
31.08.2021 09:06 14,2 C 13,9 C 14,5 C 97 % 1024,8 hPa 0,0 l/m 0 min 0 min 63 W/m 12,9 km/h (3 Bft) 95,65 %
31.08.2021 09:08 14,2 C 13,9 C 14,5 C 97 % 1024,8 hPa 0,0 l/m 0 min 0 min 67 W/m 12,9 km/h (3 Bft) 95,74 %
31.08.2021 09:10 14,2 C 13,9 C 14,5 C 97 % 1024,9 hPa 0,0 l/m 0 min 0 min 73 W/m 16,1 km/h (3 Bft) 95,74 %
31.08.2021 09:12 14,2 C 14,4 C 14,5 C 97 % 1024,9 hPa 0,0 l/m 0 min 0 min 76 W/m 9,7 km/h (2 Bft) 95,74 %
31.08.2021 09:14 14,2 C 14,4 C 14,5 C 97 % 1024,9 hPa 0,0 l/m 0 min 0 min 80 W/m 9,7 km/h (2 Bft) 95,74 %
31.08.2021 09:16 14,2 C 14,4 C 14,5 C 97 % 1024,9 hPa 0,0 l/m 0 min 0 min 76 W/m 9,7 km/h (2 Bft) 95,74 %
31.08.2021 09:18 14,2 C 14,4 C 14,5 C 97 % 1025,0 hPa 0,0 l/m 0 min 0 min 68 W/m 9,7 km/h (2 Bft) 95,74 %
31.08.2021 09:20 14,2 C 14,4 C 14,5 C 97 % 1025,0 hPa 0,0 l/m 0 min 0 min 64 W/m 12,9 km/h (3 Bft) 93,48 %
31.08.2021 09:22 14,2 C 14,4 C 14,5 C 97 % 1025,0 hPa 0,0 l/m 0 min 0 min 63 W/m 6,4 km/h (2 Bft) 93,62 %
31.08.2021 09:24 14,3 C 14,4 C 14,5 C 97 % 1025,1 hPa 0,0 l/m 0 min 0 min 72 W/m 6,4 km/h (2 Bft) 97,87 %
31.08.2021 09:26 14,3 C 14,4 C 14,5 C 97 % 1025,1 hPa 0,0 l/m 0 min 0 min 75 W/m 9,7 km/h (2 Bft) 95,74 %
31.08.2021 09:28 14,3 C 14,4 C 14,5 C 97 % 1025,1 hPa 0,0 l/m 0 min 0 min 71 W/m 9,7 km/h (2 Bft) 97,87 %
31.08.2021 09:30 14,3 C 14,4 C 14,5 C 97 % 1025,1 hPa 0,0 l/m 0 min 0 min 70 W/m 6,4 km/h (2 Bft) 93,62 %
31.08.2021 09:32 14,4 C 14,4 C 14,5 C 97 % 1025,1 hPa 0,0 l/m 0 min 0 min 73 W/m 9,7 km/h (2 Bft) 95,65 %
31.08.2021 09:34 14,4 C 14,4 C 14,5 C 97 % 1025,1 hPa 0,0 l/m 0 min 0 min 77 W/m 12,9 km/h (3 Bft) 95,35 %
31.08.2021 09:36 14,4 C 14,4 C 14,5 C 97 % 1025,1 hPa 0,0 l/m 0 min 0 min 79 W/m 9,7 km/h (2 Bft) 94,87 %
31.08.2021 09:38 14,4 C 14,4 C 14,5 C 97 % 1025,2 hPa 0,0 l/m 0 min 0 min 75 W/m 12,9 km/h (3 Bft) 96,61 %
31.08.2021 09:40 14,5 C 14,4 C 14,5 C 97 % 1025,2 hPa 0,0 l/m 0 min 0 min 65 W/m 16,1 km/h (3 Bft) 95,74 %
31.08.2021 09:42 14,5 C 14,4 C 14,5 C 97 % 1025,2 hPa 0,0 l/m 0 min 0 min 63 W/m 16,1 km/h (3 Bft) 95,65 %
31.08.2021 09:44 14,5 C 14,4 C 14,5 C 96 % 1025,3 hPa 0,0 l/m 0 min 0 min 71 W/m 12,9 km/h (3 Bft) 95,74 %
31.08.2021 09:46 14,5 C 14,4 C 14,5 C 97 % 1025,3 hPa 0,0 l/m 0 min 0 min 74 W/m 6,4 km/h (2 Bft) 100,00 %
31.08.2021 09:48 14,5 C 14,4 C 14,5 C 97 % 1025,3 hPa 0,0 l/m 0 min 0 min 71 W/m 6,4 km/h (2 Bft) 97,37 %
31.08.2021 09:50 14,5 C 14,4 C 14,5 C 96 % 1025,3 hPa 0,0 l/m 0 min 0 min 78 W/m 12,9 km/h (3 Bft) 96,00 %
31.08.2021 09:52 14,5 C 14,4 C 14,5 C 96 % 1025,3 hPa 0,0 l/m 0 min 0 min 84 W/m 12,9 km/h (3 Bft) 97,87 %
31.08.2021 09:54 14,5 C 14,4 C 14,5 C 96 % 1025,3 hPa 0,0 l/m 0 min 0 min 86 W/m 6,4 km/h (2 Bft) 97,83 %
31.08.2021 09:56 14,6 C 14,4 C 15,0 C 96 % 1025,4 hPa 0,0 l/m 0 min 0 min 89 W/m 3,2 km/h (1 Bft) 97,73 %
31.08.2021 09:58 14,6 C 15,0 C 14,5 C 96 % 1025,4 hPa 0,0 l/m 0 min 0 min 91 W/m 6,4 km/h (2 Bft) 92,00 %
31.08.2021 10:00 14,6 C 15,0 C 15,0 C 96 % 1025,4 hPa 0,0 l/m 0 min 0 min 88 W/m 6,4 km/h (2 Bft) 97,87 %
31.08.2021 10:02 14,7 C 15,0 C 15,0 C 96 % 1025,4 hPa 0,0 l/m 0 min 0 min 84 W/m 9,7 km/h (2 Bft) 98,00 %
31.08.2021 10:04 14,8 C 15,0 C 15,0 C 96 % 1025,4 hPa 0,0 l/m 0 min 0 min 81 W/m 3,2 km/h (1 Bft) 94,74 %
31.08.2021 10:06 14,8 C 15,0 C 15,0 C 96 % 1025,4 hPa 0,0 l/m 0 min 0 min 88 W/m 9,7 km/h (2 Bft) 100,00 %
31.08.2021 10:08 14,8 C 15,0 C 15,0 C 96 % 1025,4 hPa 0,0 l/m 0 min 0 min 86 W/m 9,7 km/h (2 Bft) 97,87 %
31.08.2021 10:10 14,9 C 15,0 C 15,0 C 96 % 1025,4 hPa 0,0 l/m 0 min 0 min 83 W/m 6,4 km/h (2 Bft) 100,00 %
31.08.2021 10:12 14,9 C 15,0 C 15,0 C 96 % 1025,4 hPa 0,0 l/m 0 min 0 min 82 W/m 9,7 km/h (2 Bft) 98,21 %
31.08.2021 10:14 14,9 C 15,0 C 15,0 C 96 % 1025,4 hPa 0,0 l/m 0 min 0 min 90 W/m 9,7 km/h (2 Bft) 100,00 %
31.08.2021 10:16 14,9 C 15,0 C 15,0 C 96 % 1025,4 hPa 0,0 l/m 0 min 0 min 90 W/m 9,7 km/h (2 Bft) 100,00 %
31.08.2021 10:18 15,0 C 15,0 C 15,0 C 96 % 1025,3 hPa 0,0 l/m 0 min 0 min 87 W/m 16,1 km/h (3 Bft) 100,00 %
31.08.2021 10:20 15,0 C 15,0 C 15,0 C 96 % 1025,4 hPa 0,0 l/m 0 min 0 min 76 W/m 9,7 km/h (2 Bft) 100,00 %
31.08.2021 10:22 15,0 C 15,0 C 15,0 C 95 % 1025,4 hPa 0,0 l/m 0 min 0 min 74 W/m 12,9 km/h (3 Bft) 100,00 %
31.08.2021 10:24 15,0 C 15,0 C 15,0 C 95 % 1025,4 hPa 0,0 l/m 0 min 0 min 75 W/m 9,7 km/h (2 Bft) 100,00 %
31.08.2021 10:26 15,1 C 15,0 C 15,0 C 96 % 1025,5 hPa 0,0 l/m 0 min 0 min 74 W/m 16,1 km/h (3 Bft) 97,87 %
31.08.2021 10:28 15,1 C 15,0 C 15,0 C 95 % 1025,5 hPa 0,0 l/m 0 min 0 min 71 W/m 9,7 km/h (2 Bft) 100,00 %
31.08.2021 10:30 15,1 C 15,0 C 15,0 C 95 % 1025,5 hPa 0,0 l/m 0 min 0 min 69 W/m 16,1 km/h (3 Bft) 100,00 %
31.08.2021 10:32 15,1 C 15,0 C 15,0 C 95 % 1025,5 hPa 0,0 l/m 0 min 0 min 68 W/m 16,1 km/h (3 Bft) 100,00 %
31.08.2021 10:34 15,1 C 15,0 C 15,0 C 95 % 1025,5 hPa 0,0 l/m 0 min 0 min 79 W/m 9,7 km/h (2 Bft) 97,37 %
31.08.2021 10:36 15,1 C 15,0 C 15,0 C 95 % 1025,6 hPa 0,0 l/m 0 min 0 min 84 W/m 9,7 km/h (2 Bft) 100,00 %
31.08.2021 10:38 15,2 C 15,0 C 15,0 C 95 % 1025,5 hPa 0,0 l/m 0 min 0 min 84 W/m 12,9 km/h (3 Bft) 100,00 %
31.08.2021 10:40 15,2 C 15,0 C 15,0 C 95 % 1025,5 hPa 0,0 l/m 0 min 0 min 76 W/m 12,9 km/h (3 Bft) 100,00 %
31.08.2021 10:42 15,3 C 15,0 C 15,0 C 95 % 1025,5 hPa 0,0 l/m 0 min 0 min 77 W/m 9,7 km/h (2 Bft) 100,00 %
31.08.2021 10:44 15,3 C 15,0 C 15,0 C 95 % 1025,6 hPa 0,0 l/m 0 min 0 min 86 W/m 9,7 km/h (2 Bft) 100,00 %
31.08.2021 10:46 15,3 C 15,0 C 15,0 C 95 % 1025,5 hPa 0,0 l/m 0 min 0 min 98 W/m 9,7 km/h (2 Bft) 100,00 %
31.08.2021 10:48 15,3 C 15,0 C 15,0 C 95 % 1025,6 hPa 0,0 l/m 0 min 0 min 112 W/m 9,7 km/h (2 Bft) 100,00 %
31.08.2021 10:50 15,3 C 15,6 C 15,0 C 95 % 1025,5 hPa 0,0 l/m 0 min 0 min 89 W/m 6,4 km/h (2 Bft) 100,00 %
31.08.2021 10:52 15,3 C 15,6 C 15,0 C 95 % 1025,5 hPa 0,0 l/m 0 min 0 min 84 W/m 9,7 km/h (2 Bft) 100,00 %
31.08.2021 10:54 15,3 C 15,6 C 15,0 C 95 % 1025,5 hPa 0,0 l/m 0 min 0 min 93 W/m 12,9 km/h (3 Bft) 89,36 %
31.08.2021 10:56 15,4 C 15,6 C 15,0 C 95 % 1025,5 hPa 0,0 l/m 0 min 0 min 94 W/m 16,1 km/h (3 Bft) 80,85 %
31.08.2021 10:58 15,4 C 15,6 C 15,0 C 95 % 1025,6 hPa 0,0 l/m 0 min 0 min 91 W/m 6,4 km/h (2 Bft) 97,87 %
31.08.2021 11:00 15,4 C 15,6 C 15,0 C 95 % 1025,6 hPa 0,0 l/m 0 min 0 min 77 W/m 9,7 km/h (2 Bft) 100,00 %
31.08.2021 11:02 15,4 C 15,6 C 15,0 C 94 % 1025,6 hPa 0,0 l/m 0 min 0 min 66 W/m 9,7 km/h (2 Bft) 98,00 %
31.08.2021 11:04 15,4 C 15,6 C 15,0 C 94 % 1025,6 hPa 0,0 l/m 0 min 0 min 72 W/m 9,7 km/h (2 Bft) 97,62 %
31.08.2021 11:06 15,5 C 15,6 C 15,0 C 94 % 1025,6 hPa 0,0 l/m 0 min 0 min 78 W/m 9,7 km/h (2 Bft) 100,00 %
31.08.2021 11:08 15,5 C 15,6 C 15,0 C 94 % 1025,6 hPa 0,0 l/m 0 min 0 min 100 W/m 6,4 km/h (2 Bft) 100,00 %
31.08.2021 11:10 15,5 C 15,6 C 15,6 C 94 % 1025,6 hPa 0,0 l/m 0 min 0 min 115 W/m 6,4 km/h (2 Bft) 100,00 %
31.08.2021 11:12 15,5 C 15,6 C 15,6 C 94 % 1025,6 hPa 0,0 l/m 0 min 0 min 95 W/m 3,2 km/h (1 Bft) 100,00 %
31.08.2021 11:14 15,5 C 15,6 C 15,6 C 94 % 1025,6 hPa 0,0 l/m 0 min 0 min 90 W/m 9,7 km/h (2 Bft) 97,87 %
31.08.2021 11:16 15,6 C 15,6 C 15,6 C 94 % 1025,6 hPa 0,0 l/m 0 min 0 min 115 W/m 12,9 km/h (3 Bft) 97,87 %
31.08.2021 11:18 15,6 C 15,6 C 15,6 C 94 % 1025,5 hPa 0,0 l/m 0 min 0 min 172 W/m 9,7 km/h (2 Bft) 97,83 %
31.08.2021 11:20 15,6 C 16,1 C 15,6 C 94 % 1025,6 hPa 0,0 l/m 0 min 0 min 212 W/m 16,1 km/h (3 Bft) 98,18 %
31.08.2021 11:22 15,7 C 16,1 C 15,6 C 94 % 1025,5 hPa 0,0 l/m 0 min 0 min 235 W/m 12,9 km/h (3 Bft) 94,00 %
31.08.2021 11:24 15,7 C 16,7 C 16,1 C 94 % 1025,5 hPa 0,0 l/m 0 min 0 min 256 W/m 16,1 km/h (3 Bft) 100,00 %
31.08.2021 11:26 15,8 C 16,7 C 16,1 C 94 % 1025,5 hPa 0,0 l/m 0 min 0 min 245 W/m 9,7 km/h (2 Bft) 93,62 %
31.08.2021 11:28 15,9 C 16,7 C 16,1 C 93 % 1025,5 hPa 0,0 l/m 0 min 0 min 215 W/m 12,9 km/h (3 Bft) 98,15 %
31.08.2021 11:30 15,9 C 16,7 C 16,1 C 93 % 1025,5 hPa 0,0 l/m 0 min 0 min 206 W/m 9,7 km/h (2 Bft) 98,00 %
31.08.2021 11:32 16,0 C 16,7 C 16,1 C 93 % 1025,5 hPa 0,0 l/m 0 min 0 min 216 W/m 6,4 km/h (2 Bft) 95,74 %
31.08.2021 11:34 16,0 C 16,7 C 16,1 C 93 % 1025,5 hPa 0,0 l/m 0 min 0 min 232 W/m 9,7 km/h (2 Bft) 94,44 %
31.08.2021 11:36 16,1 C 16,7 C 16,1 C 93 % 1025,5 hPa 0,0 l/m 0 min 0 min 250 W/m 12,9 km/h (3 Bft) 95,74 %
31.08.2021 11:38 16,1 C 16,7 C 16,1 C 92 % 1025,5 hPa 0,0 l/m 0 min 0 min 257 W/m 16,1 km/h (3 Bft) 95,74 %
31.08.2021 11:40 16,3 C 17,2 C 16,1 C 92 % 1025,5 hPa 0,0 l/m 0 min 0 min 265 W/m 9,7 km/h (2 Bft) 93,48 %
31.08.2021 11:42 16,3 C 17,2 C 16,7 C 92 % 1025,5 hPa 0,0 l/m 0 min 0 min 260 W/m 6,4 km/h (2 Bft) 90,91 %
31.08.2021 11:44 16,4 C 17,2 C 16,7 C 92 % 1025,5 hPa 0,0 l/m 0 min 0 min 303 W/m 12,9 km/h (3 Bft) 95,74 %
31.08.2021 11:46 16,5 C 17,8 C 16,7 C 92 % 1025,5 hPa 0,0 l/m 0 min 0 min 303 W/m 12,9 km/h (3 Bft) 94,00 %
31.08.2021 11:48 16,5 C 17,8 C 16,7 C 92 % 1025,6 hPa 0,0 l/m 0 min 0 min 277 W/m 19,3 km/h (3 Bft) 94,44 %
31.08.2021 11:50 16,6 C 17,8 C 16,7 C 92 % 1025,6 hPa 0,0 l/m 0 min 0 min 236 W/m 12,9 km/h (3 Bft) 93,62 %
31.08.2021 11:52 16,6 C 17,8 C 16,7 C 91 % 1025,6 hPa 0,0 l/m 0 min 0 min 223 W/m 19,3 km/h (3 Bft) 98,15 %
31.08.2021 11:54 16,8 C 17,8 C 16,7 C 91 % 1025,6 hPa 0,0 l/m 0 min 0 min 286 W/m 16,1 km/h (3 Bft) 95,74 %
31.08.2021 11:56 16,9 C 18,3 C 17,8 C 91 % 1025,6 hPa 0,0 l/m 2 min 0 min 488 W/m 6,4 km/h (2 Bft) 90,00 %
31.08.2021 11:58 17,0 C 18,9 C 17,8 C 90 % 1025,6 hPa 0,0 l/m 2 min 0 min 395 W/m 9,7 km/h (2 Bft) 94,74 %
31.08.2021 12:00 17,1 C 18,9 C 17,8 C 90 % 1025,5 hPa 0,0 l/m 0 min 0 min 316 W/m 16,1 km/h (3 Bft) 91,67 %
31.08.2021 12:02 17,2 C 18,9 C 17,8 C 90 % 1025,5 hPa 0,0 l/m 0 min 0 min 332 W/m 12,9 km/h (3 Bft) 93,88 %
31.08.2021 12:04 17,3 C 18,9 C 18,4 C 89 % 1025,5 hPa 0,0 l/m 0 min 0 min 317 W/m 9,7 km/h (2 Bft) 94,12 %
31.08.2021 12:08 17,4 C 18,9 C 17,8 C 88 % 1025,5 hPa 0,0 l/m 0 min 0 min 201 W/m 19,3 km/h (3 Bft) 96,34 %
31.08.2021 12:10 17,4 C 18,9 C 18,4 C 87 % 1025,5 hPa 0,0 l/m 0 min 0 min 207 W/m 12,9 km/h (3 Bft) 96,43 %
31.08.2021 12:12 17,5 C 19,4 C 18,9 C 87 % 1025,5 hPa 0,0 l/m 0 min 0 min 226 W/m 6,4 km/h (2 Bft) 95,92 %
31.08.2021 12:14 17,6 C 20,6 C 20,6 C 87 % 1025,5 hPa 0,0 l/m 2 min 0 min 526 W/m 9,7 km/h (2 Bft) 97,44 %
31.08.2021 12:16 17,9 C 21,7 C 21,1 C 87 % 1025,4 hPa 0,0 l/m 2 min 0 min 830 W/m 16,1 km/h (3 Bft) 97,83 %
31.08.2021 12:18 18,0 C 21,7 C 21,1 C 86 % 1025,5 hPa 0,0 l/m 2 min 0 min 830 W/m 19,3 km/h (3 Bft) 98,21 %
31.08.2021 12:20 18,1 C 21,7 C 21,7 C 86 % 1025,4 hPa 0,0 l/m 2 min 0 min 798 W/m 12,9 km/h (3 Bft) 97,37 %
31.08.2021 12:22 18,3 C 20,6 C 20,6 C 85 % 1025,5 hPa 0,0 l/m 2 min 0 min 658 W/m 12,9 km/h (3 Bft) 97,87 %
31.08.2021 12:24 18,3 C 20,0 C 19,5 C 84 % 1025,4 hPa 0,0 l/m 0 min 0 min 273 W/m 19,3 km/h (3 Bft) 97,87 %
31.08.2021 12:26 18,3 C 19,4 C 18,9 C 84 % 1025,5 hPa 0,0 l/m 0 min 0 min 245 W/m 9,7 km/h (2 Bft) 95,65 %
31.08.2021 12:28 18,3 C 18,9 C 18,4 C 83 % 1025,6 hPa 0,0 l/m 0 min 0 min 200 W/m 16,1 km/h (3 Bft) 98,21 %
31.08.2021 12:30 18,3 C 18,9 C 17,8 C 83 % 1025,5 hPa 0,0 l/m 0 min 0 min 190 W/m 3,2 km/h (1 Bft) 100,00 %
31.08.2021 12:32 18,3 C 18,9 C 17,8 C 83 % 1025,5 hPa 0,0 l/m 0 min 0 min 190 W/m 12,9 km/h (3 Bft) 98,33 %
31.08.2021 12:34 18,3 C 20,0 C 18,4 C 83 % 1025,5 hPa 0,0 l/m 2 min 0 min 357 W/m 19,3 km/h (3 Bft) 95,74 %
31.08.2021 12:36 18,5 C 20,6 C 18,4 C 83 % 1025,5 hPa 0,0 l/m 2 min 0 min 954 W/m 9,7 km/h (2 Bft) 93,62 %
31.08.2021 12:38 18,6 C 21,1 C 18,9 C 83 % 1025,5 hPa 0,0 l/m 2 min 0 min 926 W/m 16,1 km/h (3 Bft) 97,87 %
31.08.2021 12:40 18,8 C 20,6 C 18,4 C 82 % 1025,5 hPa 0,0 l/m 2 min 0 min 419 W/m 12,9 km/h (3 Bft) 97,87 %
31.08.2021 12:42 18,8 C 20,0 C 18,4 C 81 % 1025,5 hPa 0,0 l/m 0 min 0 min 222 W/m 9,7 km/h (2 Bft) 97,83 %
31.08.2021 12:44 18,8 C 19,4 C 18,4 C 81 % 1025,5 hPa 0,0 l/m 0 min 0 min 241 W/m 12,9 km/h (3 Bft) 97,87 %
31.08.2021 12:46 18,8 C 19,4 C 17,8 C 81 % 1025,6 hPa 0,0 l/m 0 min 0 min 202 W/m 16,1 km/h (3 Bft) 97,87 %
31.08.2021 12:48 18,8 C 18,9 C 17,8 C 81 % 1025,6 hPa 0,0 l/m 0 min 0 min 179 W/m 9,7 km/h (2 Bft) 97,87 %
31.08.2021 12:50 18,8 C 18,9 C 17,8 C 81 % 1025,5 hPa 0,0 l/m 0 min 0 min 143 W/m 12,9 km/h (3 Bft) 97,87 %
31.08.2021 12:52 18,7 C 18,9 C 17,8 C 81 % 1025,5 hPa 0,0 l/m 0 min 0 min 195 W/m 19,3 km/h (3 Bft) 97,87 %
31.08.2021 12:54 18,8 C 18,9 C 17,8 C 81 % 1025,6 hPa 0,0 l/m 2 min 0 min 454 W/m 16,1 km/h (3 Bft) 97,83 %
31.08.2021 12:56 18,8 C 18,9 C 17,8 C 80 % 1025,5 hPa 0,0 l/m 2 min 0 min 814 W/m 9,7 km/h (2 Bft) 97,87 %
31.08.2021 12:58 18,9 C 19,4 C 17,8 C 81 % 1025,6 hPa 0,0 l/m 2 min 0 min 822 W/m 9,7 km/h (2 Bft) 97,67 %
31.08.2021 13:00 19,1 C 19,4 C 17,8 C 80 % 1025,6 hPa 0,0 l/m 2 min 0 min 819 W/m 12,9 km/h (3 Bft) 97,83 %
31.08.2021 13:02 19,1 C 19,4 C 17,8 C 79 % 1025,5 hPa 0,0 l/m 2 min 0 min 830 W/m 12,9 km/h (3 Bft) 98,00 %
31.08.2021 13:04 19,2 C 20,0 C 17,8 C 78 % 1025,5 hPa 0,0 l/m 2 min 0 min 853 W/m 9,7 km/h (2 Bft) 97,87 %
31.08.2021 13:06 19,3 C 20,0 C 17,8 C 77 % 1025,5 hPa 0,0 l/m 2 min 0 min 871 W/m 16,1 km/h (3 Bft) 100,00 %
31.08.2021 13:08 19,4 C 20,6 C 18,4 C 77 % 1025,5 hPa 0,0 l/m 2 min 0 min 872 W/m 9,7 km/h (2 Bft) 100,00 %
31.08.2021 13:10 19,5 C 20,0 C 18,4 C 77 % 1025,5 hPa 0,0 l/m 2 min 0 min 697 W/m 9,7 km/h (2 Bft) 100,00 %
31.08.2021 13:12 19,6 C 20,0 C 18,4 C 76 % 1025,5 hPa 0,0 l/m 0 min 0 min 304 W/m 9,7 km/h (2 Bft) 97,87 %
31.08.2021 13:14 19,6 C 20,6 C 18,4 C 76 % 1025,5 hPa 0,0 l/m 2 min 0 min 903 W/m 16,1 km/h (3 Bft) 100,00 %
31.08.2021 13:16 19,8 C 20,6 C 18,9 C 75 % 1025,6 hPa 0,0 l/m 2 min 0 min 914 W/m 16,1 km/h (3 Bft) 100,00 %
31.08.2021 13:18 19,9 C 21,1 C 18,9 C 75 % 1025,6 hPa 0,0 l/m 2 min 0 min 940 W/m 6,4 km/h (2 Bft) 100,00 %
31.08.2021 13:20 20,0 C 20,6 C 18,9 C 75 % 1025,5 hPa 0,0 l/m 2 min 0 min 811 W/m 19,3 km/h (3 Bft) 100,00 %
31.08.2021 13:22 19,9 C 20,0 C 18,4 C 73 % 1025,5 hPa 0,0 l/m 0 min 0 min 218 W/m 16,1 km/h (3 Bft) 100,00 %
31.08.2021 13:24 19,9 C 19,4 C 18,4 C 72 % 1025,4 hPa 0,0 l/m 0 min 0 min 166 W/m 12,9 km/h (3 Bft) 97,87 %
31.08.2021 13:26 19,8 C 19,4 C 17,8 C 72 % 1025,5 hPa 0,0 l/m 0 min 0 min 147 W/m 12,9 km/h (3 Bft) 97,87 %
31.08.2021 13:28 19,7 C 20,0 C 17,8 C 72 % 1025,5 hPa 0,0 l/m 2 min 0 min 394 W/m 16,1 km/h (3 Bft) 100,00 %
31.08.2021 13:30 19,8 C 20,6 C 17,8 C 73 % 1025,5 hPa 0,0 l/m 2 min 0 min 861 W/m 3,2 km/h (1 Bft) 100,00 %
31.08.2021 13:32 19,8 C 21,1 C 18,4 C 72 % 1025,4 hPa 0,0 l/m 2 min 0 min 877 W/m 16,1 km/h (3 Bft) 100,00 %
31.08.2021 13:34 19,9 C 21,1 C 18,4 C 72 % 1025,5 hPa 0,0 l/m 2 min 0 min 873 W/m 9,7 km/h (2 Bft) 97,87 %
31.08.2021 13:36 20,0 C 20,6 C 18,4 C 73 % 1025,5 hPa 0,0 l/m 0 min 0 min 256 W/m 16,1 km/h (3 Bft) 100,00 %
31.08.2021 13:38 20,0 C 20,6 C 17,8 C 73 % 1025,5 hPa 0,0 l/m 0 min 0 min 228 W/m 12,9 km/h (3 Bft) 100,00 %
31.08.2021 13:40 20,0 C 20,0 C 17,8 C 74 % 1025,4 hPa 0,0 l/m 0 min 0 min 213 W/m 9,7 km/h (2 Bft) 100,00 %
31.08.2021 13:42 19,9 C 20,0 C 17,8 C 73 % 1025,4 hPa 0,0 l/m 0 min 0 min 154 W/m 6,4 km/h (2 Bft) 97,87 %
31.08.2021 13:44 19,8 C 19,4 C 17,8 C 73 % 1025,4 hPa 0,0 l/m 0 min 0 min 141 W/m 12,9 km/h (3 Bft) 98,28 %
31.08.2021 13:46 19,7 C 20,6 C 17,8 C 73 % 1025,4 hPa 0,0 l/m 2 min 0 min 399 W/m 12,9 km/h (3 Bft) 93,62 %
31.08.2021 13:48 19,8 C 22,2 C 17,8 C 73 % 1025,4 hPa 0,0 l/m 2 min 0 min 809 W/m 9,7 km/h (2 Bft) 97,14 %
31.08.2021 13:50 19,8 C 22,8 C 17,8 C 73 % 1025,4 hPa 0,0 l/m 2 min 0 min 826 W/m 9,7 km/h (2 Bft) 96,61 %
31.08.2021 13:52 20,0 C 23,9 C 17,8 C 73 % 1025,3 hPa 0,0 l/m 2 min 0 min 851 W/m 16,1 km/h (3 Bft) 95,65 %
31.08.2021 13:54 20,2 C 23,9 C 18,4 C 73 % 1025,3 hPa 0,0 l/m 2 min 0 min 819 W/m 25,7 km/h (4 Bft) 94,44 %
31.08.2021 13:56 20,3 C 23,9 C 18,4 C 73 % 1025,4 hPa 0,0 l/m 0 min 0 min 241 W/m 9,7 km/h (2 Bft) 95,65 %
31.08.2021 13:58 20,5 C 23,9 C 18,9 C 74 % 1025,4 hPa 0,0 l/m 2 min 0 min 841 W/m 22,5 km/h (4 Bft) 95,83 %
31.08.2021 14:00 20,5 C 22,8 C 18,4 C 73 % 1025,5 hPa 0,0 l/m 2 min 0 min 565 W/m 12,9 km/h (3 Bft) 95,74 %
31.08.2021 14:02 20,4 C 22,2 C 18,4 C 73 % 1025,4 hPa 0,0 l/m 0 min 0 min 191 W/m 16,1 km/h (3 Bft) 93,62 %
31.08.2021 14:04 20,4 C 22,8 C 18,4 C 73 % 1025,4 hPa 0,0 l/m 2 min 0 min 423 W/m 19,3 km/h (3 Bft) 95,74 %
31.08.2021 14:06 20,5 C 23,9 C 18,4 C 73 % 1025,5 hPa 0,0 l/m 2 min 0 min 820 W/m 12,9 km/h (3 Bft) 95,65 %
31.08.2021 14:08 20,6 C 25,0 C 18,4 C 72 % 1025,5 hPa 0,0 l/m 2 min 0 min 834 W/m 16,1 km/h (3 Bft) 96,00 %
31.08.2021 14:10 20,7 C 25,0 C 18,4 C 71 % 1025,4 hPa 0,0 l/m 2 min 0 min 860 W/m 12,9 km/h (3 Bft) 95,74 %
31.08.2021 14:12 20,8 C 25,6 C 18,9 C 72 % 1025,4 hPa 0,0 l/m 2 min 0 min 855 W/m 19,3 km/h (3 Bft) 95,74 %
31.08.2021 14:14 20,8 C 23,9 C 18,4 C 70 % 1025,4 hPa 0,0 l/m 0 min 0 min 353 W/m 25,7 km/h (4 Bft) 95,74 %
31.08.2021 14:16 20,8 C 23,9 C 18,4 C 69 % 1025,4 hPa 0,0 l/m 2 min 0 min 692 W/m 19,3 km/h (3 Bft) 95,74 %
31.08.2021 14:18 20,9 C 24,4 C 18,4 C 69 % 1025,4 hPa 0,0 l/m 2 min 0 min 789 W/m 22,5 km/h (4 Bft) 93,62 %
31.08.2021 14:20 21,0 C 25,0 C 18,4 C 69 % 1025,4 hPa 0,0 l/m 2 min 0 min 785 W/m 16,1 km/h (3 Bft) 95,74 %
31.08.2021 14:22 21,0 C 25,6 C 18,9 C 70 % 1025,4 hPa 0,0 l/m 2 min 0 min 726 W/m 12,9 km/h (3 Bft) 95,65 %
31.08.2021 14:24 21,2 C 25,0 C 18,9 C 69 % 1025,4 hPa 0,0 l/m 2 min 0 min 831 W/m 12,9 km/h (3 Bft) 97,87 %
31.08.2021 14:26 21,3 C 25,6 C 18,9 C 68 % 1025,4 hPa 0,0 l/m 2 min 0 min 771 W/m 12,9 km/h (3 Bft) 97,87 %
31.08.2021 14:28 21,3 C 26,1 C 18,9 C 69 % 1025,4 hPa 0,0 l/m 2 min 0 min 635 W/m 16,1 km/h (3 Bft) 95,74 %
31.08.2021 14:30 21,4 C 24,4 C 18,9 C 69 % 1025,5 hPa 0,0 l/m 2 min 0 min 458 W/m 22,5 km/h (4 Bft) 97,67 %
31.08.2021 14:32 21,4 C 24,4 C 18,9 C 69 % 1025,5 hPa 0,0 l/m 2 min 0 min 386 W/m 16,1 km/h (3 Bft) 100,00 %
31.08.2021 14:34 21,3 C 23,9 C 18,9 C 69 % 1025,5 hPa 0,0 l/m 2 min 0 min 413 W/m 16,1 km/h (3 Bft) 97,87 %
31.08.2021 14:36 21,3 C 23,3 C 18,9 C 69 % 1025,5 hPa 0,0 l/m 2 min 0 min 431 W/m 29,0 km/h (5 Bft) 100,00 %
31.08.2021 14:38 21,3 C 22,8 C 18,9 C 68 % 1025,5 hPa 0,0 l/m 0 min 0 min 248 W/m 22,5 km/h (4 Bft) 97,87 %
31.08.2021 14:40 21,1 C 22,2 C 18,9 C 69 % 1025,5 hPa 0,0 l/m 0 min 0 min 192 W/m 16,1 km/h (3 Bft) 100,00 %
31.08.2021 14:42 21,0 C 23,3 C 18,9 C 69 % 1025,5 hPa 0,0 l/m 2 min 0 min 817 W/m 19,3 km/h (3 Bft) 98,00 %
31.08.2021 14:44 21,0 C 24,4 C 18,9 C 69 % 1025,4 hPa 0,0 l/m 2 min 0 min 786 W/m 12,9 km/h (3 Bft) 97,87 %
31.08.2021 14:46 21,1 C 25,0 C 18,9 C 69 % 1025,4 hPa 0,0 l/m 2 min 0 min 779 W/m 19,3 km/h (3 Bft) 100,00 %
31.08.2021 14:48 21,1 C 25,6 C 18,9 C 69 % 1025,4 hPa 0,0 l/m 2 min 0 min 782 W/m 16,1 km/h (3 Bft) 97,83 %
31.08.2021 14:50 21,3 C 26,1 C 18,9 C 69 % 1025,4 hPa 0,0 l/m 2 min 0 min 797 W/m 16,1 km/h (3 Bft) 100,00 %
31.08.2021 14:52 21,4 C 26,1 C 18,9 C 69 % 1025,4 hPa 0,0 l/m 2 min 0 min 805 W/m 19,3 km/h (3 Bft) 97,83 %
31.08.2021 14:54 21,5 C 26,1 C 18,9 C 69 % 1025,4 hPa 0,0 l/m 2 min 0 min 807 W/m 16,1 km/h (3 Bft) 100,00 %
31.08.2021 14:56 21,5 C 24,4 C 18,9 C 68 % 1025,4 hPa 0,0 l/m 2 min 0 min 807 W/m 22,5 km/h (4 Bft) 100,00 %
31.08.2021 14:58 21,5 C 25,0 C 18,9 C 68 % 1025,4 hPa 0,0 l/m 2 min 0 min 796 W/m 19,3 km/h (3 Bft) 100,00 %
31.08.2021 15:00 21,5 C 25,6 C 18,9 C 67 % 1025,3 hPa 0,0 l/m 2 min 0 min 778 W/m 12,9 km/h (3 Bft) 100,00 %
31.08.2021 15:02 21,6 C 25,6 C 18,9 C 65 % 1025,4 hPa 0,0 l/m 2 min 0 min 754 W/m 25,7 km/h (4 Bft) 100,00 %
31.08.2021 15:04 21,6 C 26,1 C 18,9 C 65 % 1025,3 hPa 0,0 l/m 2 min 0 min 748 W/m 19,3 km/h (3 Bft) 100,00 %
31.08.2021 15:06 21,8 C 26,7 C 18,9 C 66 % 1025,3 hPa 0,0 l/m 2 min 0 min 751 W/m 9,7 km/h (2 Bft) 100,00 %
31.08.2021 15:08 21,9 C 26,7 C 19,5 C 66 % 1025,3 hPa 0,0 l/m 2 min 0 min 733 W/m 22,5 km/h (4 Bft) 100,00 %
31.08.2021 15:10 21,9 C 25,6 C 18,9 C 65 % 1025,3 hPa 0,0 l/m 2 min 0 min 756 W/m 22,5 km/h (4 Bft) 100,00 %
31.08.2021 15:12 21,9 C 25,6 C 18,9 C 64 % 1025,3 hPa 0,0 l/m 2 min 0 min 758 W/m 16,1 km/h (3 Bft) 100,00 %
31.08.2021 15:14 21,9 C 26,1 C 18,9 C 64 % 1025,3 hPa 0,0 l/m 2 min 0 min 760 W/m 19,3 km/h (3 Bft) 98,11 %
31.08.2021 15:16 21,9 C 26,7 C 18,9 C 65 % 1025,2 hPa 0,0 l/m 2 min 0 min 734 W/m 6,4 km/h (2 Bft) 100,00 %
31.08.2021 15:18 22,0 C 26,1 C 18,9 C 65 % 1025,2 hPa 0,0 l/m 2 min 0 min 732 W/m 9,7 km/h (2 Bft) 97,37 %
31.08.2021 15:20 21,9 C 25,6 C 18,9 C 64 % 1025,2 hPa 0,0 l/m 2 min 0 min 735 W/m 16,1 km/h (3 Bft) 100,00 %
31.08.2021 15:22 22,0 C 25,6 C 18,9 C 65 % 1025,2 hPa 0,0 l/m 2 min 0 min 737 W/m 16,1 km/h (3 Bft) 100,00 %
31.08.2021 15:24 22,0 C 26,7 C 18,9 C 66 % 1025,1 hPa 0,0 l/m 2 min 0 min 733 W/m 16,1 km/h (3 Bft) 97,87 %
31.08.2021 15:26 22,1 C 26,7 C 18,9 C 65 % 1025,1 hPa 0,0 l/m 2 min 0 min 716 W/m 19,3 km/h (3 Bft) 100,00 %
31.08.2021 15:28 22,1 C 26,7 C 18,9 C 64 % 1025,2 hPa 0,0 l/m 2 min 0 min 745 W/m 16,1 km/h (3 Bft) 100,00 %
31.08.2021 15:30 22,2 C 26,7 C 18,9 C 64 % 1025,1 hPa 0,0 l/m 2 min 0 min 756 W/m 12,9 km/h (3 Bft) 97,87 %
31.08.2021 15:32 22,2 C 26,7 C 18,9 C 64 % 1025,1 hPa 0,0 l/m 2 min 0 min 733 W/m 19,3 km/h (3 Bft) 95,65 %
31.08.2021 15:34 22,3 C 25,0 C 19,5 C 64 % 1025,1 hPa 0,0 l/m 2 min 0 min 448 W/m 16,1 km/h (3 Bft) 97,87 %
31.08.2021 15:36 22,2 C 24,4 C 18,9 C 64 % 1025,1 hPa 0,0 l/m 0 min 0 min 236 W/m 12,9 km/h (3 Bft) 97,67 %
31.08.2021 15:38 22,1 C 23,3 C 18,9 C 65 % 1025,2 hPa 0,0 l/m 0 min 0 min 209 W/m 16,1 km/h (3 Bft) 97,92 %
31.08.2021 15:40 22,0 C 22,8 C 18,9 C 65 % 1025,2 hPa 0,0 l/m 0 min 0 min 241 W/m 19,3 km/h (3 Bft) 97,83 %
31.08.2021 15:42 22,0 C 23,9 C 18,9 C 65 % 1025,2 hPa 0,0 l/m 2 min 0 min 383 W/m 6,4 km/h (2 Bft) 98,00 %
31.08.2021 15:44 22,0 C 23,9 C 18,9 C 66 % 1025,1 hPa 0,0 l/m 2 min 0 min 514 W/m 6,4 km/h (2 Bft) 97,87 %
31.08.2021 15:46 22,0 C 23,3 C 18,9 C 66 % 1025,1 hPa 0,0 l/m 0 min 0 min 237 W/m 9,7 km/h (2 Bft) 97,87 %
31.08.2021 15:48 21,9 C 22,8 C 18,9 C 65 % 1025,1 hPa 0,0 l/m 0 min 0 min 205 W/m 12,9 km/h (3 Bft) 95,74 %
31.08.2021 15:50 21,9 C 22,2 C 18,9 C 66 % 1025,1 hPa 0,0 l/m 0 min 0 min 208 W/m 9,7 km/h (2 Bft) 97,83 %
31.08.2021 15:52 21,7 C 22,2 C 18,9 C 65 % 1025,1 hPa 0,0 l/m 0 min 0 min 232 W/m 12,9 km/h (3 Bft) 97,87 %
31.08.2021 15:54 21,6 C 23,3 C 18,9 C 66 % 1025,1 hPa 0,0 l/m 0 min 0 min 200 W/m 16,1 km/h (3 Bft) 93,62 %
31.08.2021 15:56 21,5 C 22,8 C 18,9 C 66 % 1025,1 hPa 0,0 l/m 0 min 0 min 179 W/m 16,1 km/h (3 Bft) 93,62 %
31.08.2021 15:58 21,6 C 24,4 C 18,9 C 66 % 1025,1 hPa 0,0 l/m 0 min 0 min 273 W/m 6,4 km/h (2 Bft) 96,00 %
31.08.2021 16:00 21,6 C 26,1 C 18,9 C 67 % 1025,1 hPa 0,0 l/m 2 min 0 min 762 W/m 12,9 km/h (3 Bft) 95,74 %
31.08.2021 16:02 21,8 C 26,7 C 19,5 C 66 % 1025,1 hPa 0,0 l/m 2 min 0 min 754 W/m 9,7 km/h (2 Bft) 95,74 %
31.08.2021 16:04 21,9 C 26,1 C 19,5 C 66 % 1025,1 hPa 0,0 l/m 2 min 0 min 749 W/m 19,3 km/h (3 Bft) 95,74 %
31.08.2021 16:06 22,0 C 24,4 C 19,5 C 66 % 1025,1 hPa 0,0 l/m 2 min 0 min 364 W/m 16,1 km/h (3 Bft) 95,74 %
31.08.2021 16:08 22,0 C 25,0 C 18,9 C 66 % 1025,0 hPa 0,0 l/m 2 min 0 min 293 W/m 12,9 km/h (3 Bft) 95,74 %
31.08.2021 16:10 22,0 C 24,4 C 18,9 C 66 % 1025,0 hPa 0,0 l/m 0 min 0 min 225 W/m 9,7 km/h (2 Bft) 95,74 %
31.08.2021 16:12 22,0 C 23,9 C 18,9 C 66 % 1025,1 hPa 0,0 l/m 2 min 0 min 367 W/m 12,9 km/h (3 Bft) 95,74 %
31.08.2021 16:14 21,9 C 23,3 C 18,9 C 66 % 1025,0 hPa 0,0 l/m 2 min 0 min 367 W/m 9,7 km/h (2 Bft) 95,65 %
31.08.2021 16:16 21,8 C 22,2 C 18,9 C 66 % 1025,1 hPa 0,0 l/m 0 min 0 min 181 W/m 12,9 km/h (3 Bft) 95,74 %
31.08.2021 16:18 21,7 C 21,7 C 18,9 C 65 % 1025,1 hPa 0,0 l/m 0 min 0 min 171 W/m 6,4 km/h (2 Bft) 95,74 %
31.08.2021 16:20 21,6 C 22,8 C 18,4 C 66 % 1025,1 hPa 0,0 l/m 0 min 0 min 163 W/m 16,1 km/h (3 Bft) 93,62 %
31.08.2021 16:22 21,5 C 22,2 C 18,4 C 67 % 1025,0 hPa 0,0 l/m 0 min 0 min 155 W/m 12,9 km/h (3 Bft) 93,62 %
31.08.2021 16:24 21,5 C 21,7 C 18,4 C 67 % 1025,1 hPa 0,0 l/m 0 min 0 min 130 W/m 12,9 km/h (3 Bft) 91,30 %
31.08.2021 16:26 21,4 C 22,2 C 18,4 C 68 % 1025,0 hPa 0,0 l/m 0 min 0 min 171 W/m 6,4 km/h (2 Bft) 93,62 %
31.08.2021 16:28 21,4 C 25,0 C 18,4 C 68 % 1025,1 hPa 0,0 l/m 2 min 0 min 496 W/m 9,7 km/h (2 Bft) 95,74 %
31.08.2021 16:30 21,5 C 26,7 C 18,9 C 69 % 1025,1 hPa 0,0 l/m 2 min 0 min 642 W/m 6,4 km/h (2 Bft) 95,74 %
31.08.2021 16:32 21,6 C 28,3 C 18,9 C 69 % 1025,0 hPa 0,0 l/m 2 min 0 min 603 W/m 6,4 km/h (2 Bft) 97,92 %
31.08.2021 16:34 21,8 C 28,3 C 18,9 C 68 % 1025,0 hPa 0,0 l/m 2 min 0 min 566 W/m 19,3 km/h (3 Bft) 95,74 %
31.08.2021 16:36 21,9 C 28,3 C 19,5 C 66 % 1025,0 hPa 0,0 l/m 2 min 0 min 532 W/m 12,9 km/h (3 Bft) 97,83 %
31.08.2021 16:38 21,9 C 28,3 C 18,9 C 65 % 1025,0 hPa 0,0 l/m 2 min 0 min 547 W/m 12,9 km/h (3 Bft) 97,87 %
31.08.2021 16:40 22,0 C 27,8 C 19,5 C 65 % 1025,0 hPa 0,0 l/m 2 min 0 min 567 W/m 22,5 km/h (4 Bft) 97,87 %
31.08.2021 16:42 22,0 C 27,8 C 19,5 C 65 % 1025,0 hPa 0,0 l/m 2 min 0 min 585 W/m 9,7 km/h (2 Bft) 97,87 %
31.08.2021 16:44 22,1 C 27,8 C 19,5 C 65 % 1025,0 hPa 0,0 l/m 2 min 0 min 571 W/m 12,9 km/h (3 Bft) 97,87 %
31.08.2021 16:46 22,1 C 27,2 C 19,5 C 65 % 1025,0 hPa 0,0 l/m 2 min 0 min 541 W/m 9,7 km/h (2 Bft) 97,87 %
31.08.2021 16:48 22,1 C 26,7 C 19,5 C 65 % 1024,9 hPa 0,0 l/m 2 min 0 min 527 W/m 9,7 km/h (2 Bft) 97,83 %
31.08.2021 16:50 22,1 C 27,2 C 19,5 C 66 % 1025,0 hPa 0,0 l/m 2 min 0 min 555 W/m 16,1 km/h (3 Bft) 97,87 %
31.08.2021 16:52 22,2 C 26,1 C 19,5 C 64 % 1025,0 hPa 0,0 l/m 2 min 0 min 542 W/m 19,3 km/h (3 Bft) 95,74 %
31.08.2021 16:54 22,1 C 25,0 C 19,5 C 64 % 1025,0 hPa 0,0 l/m 0 min 0 min 210 W/m 16,1 km/h (3 Bft) 97,87 %
31.08.2021 16:56 22,0 C 23,9 C 18,9 C 64 % 1025,0 hPa 0,0 l/m 0 min 0 min 155 W/m 9,7 km/h (2 Bft) 97,87 %
31.08.2021 16:58 22,0 C 25,6 C 19,5 C 66 % 1025,0 hPa 0,0 l/m 2 min 0 min 452 W/m 16,1 km/h (3 Bft) 97,87 %
31.08.2021 17:00 22,0 C 27,2 C 19,5 C 66 % 1025,0 hPa 0,0 l/m 2 min 0 min 595 W/m 9,7 km/h (2 Bft) 97,83 %
31.08.2021 17:02 22,0 C 27,8 C 20,0 C 66 % 1024,9 hPa 0,0 l/m 2 min 0 min 612 W/m 9,7 km/h (2 Bft) 95,83 %
31.08.2021 17:04 22,2 C 28,9 C 20,0 C 66 % 1024,9 hPa 0,0 l/m 2 min 0 min 599 W/m 9,7 km/h (2 Bft) 97,87 %
31.08.2021 17:06 22,3 C 28,3 C 20,0 C 65 % 1025,0 hPa 0,0 l/m 2 min 0 min 581 W/m 12,9 km/h (3 Bft) 100,00 %
31.08.2021 17:08 22,4 C 27,2 C 20,0 C 66 % 1025,0 hPa 0,0 l/m 0 min 0 min 206 W/m 32,2 km/h (5 Bft) 97,87 %
31.08.2021 17:10 22,4 C 26,7 C 19,5 C 65 % 1024,9 hPa 0,0 l/m 2 min 0 min 295 W/m 12,9 km/h (3 Bft) 100,00 %
31.08.2021 17:12 22,4 C 26,1 C 19,5 C 65 % 1024,9 hPa 0,0 l/m 2 min 0 min 509 W/m 6,4 km/h (2 Bft) 100,00 %
31.08.2021 17:14 22,3 C 25,0 C 19,5 C 65 % 1024,9 hPa 0,0 l/m 2 min 0 min 272 W/m 12,9 km/h (3 Bft) 100,00 %
31.08.2021 17:16 22,2 C 25,0 C 19,5 C 66 % 1025,0 hPa 0,0 l/m 0 min 0 min 104 W/m 12,9 km/h (3 Bft) 97,87 %
31.08.2021 17:18 22,1 C 23,9 C 18,9 C 66 % 1024,9 hPa 0,0 l/m 0 min 0 min 113 W/m 12,9 km/h (3 Bft) 100,00 %
31.08.2021 17:20 22,0 C 24,4 C 18,9 C 66 % 1025,0 hPa 0,0 l/m 0 min 0 min 172 W/m 9,7 km/h (2 Bft) 100,00 %
31.08.2021 17:22 22,0 C 25,6 C 18,9 C 67 % 1025,0 hPa 0,0 l/m 2 min 0 min 394 W/m 9,7 km/h (2 Bft) 100,00 %
31.08.2021 17:24 22,0 C 26,7 C 19,5 C 67 % 1025,0 hPa 0,0 l/m 2 min 0 min 465 W/m 12,9 km/h (3 Bft) 97,87 %
31.08.2021 17:26 22,1 C 27,8 C 19,5 C 67 % 1024,9 hPa 0,0 l/m 2 min 0 min 471 W/m 9,7 km/h (2 Bft) 100,00 %
31.08.2021 17:28 22,1 C 27,8 C 19,5 C 65 % 1024,9 hPa 0,0 l/m 2 min 0 min 479 W/m 6,4 km/h (2 Bft) 100,00 %
31.08.2021 17:30 22,3 C 27,2 C 19,5 C 65 % 1025,0 hPa 0,0 l/m 2 min 0 min 427 W/m 9,7 km/h (2 Bft) 100,00 %
31.08.2021 17:32 22,3 C 27,8 C 20,0 C 65 % 1025,0 hPa 0,0 l/m 2 min 0 min 494 W/m 12,9 km/h (3 Bft) 100,00 %
31.08.2021 17:34 22,4 C 27,2 C 20,0 C 65 % 1025,0 hPa 0,0 l/m 2 min 0 min 477 W/m 16,1 km/h (3 Bft) 100,00 %
31.08.2021 17:36 22,5 C 27,2 C 20,0 C 65 % 1024,9 hPa 0,0 l/m 2 min 0 min 424 W/m 12,9 km/h (3 Bft) 100,00 %
31.08.2021 17:38 22,5 C 26,1 C 20,0 C 65 % 1025,0 hPa 0,0 l/m 2 min 0 min 314 W/m 12,9 km/h (3 Bft) 100,00 %
31.08.2021 17:40 22,5 C 25,0 C 19,5 C 64 % 1024,9 hPa 0,0 l/m 2 min 0 min 229 W/m 12,9 km/h (3 Bft) 100,00 %
31.08.2021 17:42 22,4 C 23,9 C 19,5 C 65 % 1024,9 hPa 0,0 l/m 0 min 0 min 126 W/m 12,9 km/h (3 Bft) 97,87 %
31.08.2021 17:44 22,3 C 22,8 C 19,5 C 64 % 1024,9 hPa 0,0 l/m 0 min 0 min 121 W/m 12,9 km/h (3 Bft) 100,00 %
31.08.2021 17:46 22,0 C 23,3 C 18,9 C 65 % 1024,9 hPa 0,0 l/m 0 min 0 min 120 W/m 6,4 km/h (2 Bft) 100,00 %
31.08.2021 17:48 22,0 C 25,0 C 18,9 C 67 % 1024,9 hPa 0,0 l/m 2 min 0 min 356 W/m 6,4 km/h (2 Bft) 100,00 %
31.08.2021 17:50 22,0 C 25,6 C 19,5 C 67 % 1024,9 hPa 0,0 l/m 2 min 0 min 365 W/m 12,9 km/h (3 Bft) 100,00 %
31.08.2021 17:52 22,1 C 26,1 C 19,5 C 68 % 1024,8 hPa 0,0 l/m 2 min 0 min 365 W/m 16,1 km/h (3 Bft) 100,00 %
31.08.2021 17:54 22,1 C 26,7 C 19,5 C 67 % 1024,9 hPa 0,0 l/m 2 min 0 min 375 W/m 19,3 km/h (3 Bft) 100,00 %
31.08.2021 17:56 22,2 C 26,7 C 19,5 C 65 % 1024,8 hPa 0,0 l/m 2 min 0 min 370 W/m 12,9 km/h (3 Bft) 97,83 %
31.08.2021 17:58 22,3 C 26,7 C 19,5 C 66 % 1024,8 hPa 0,0 l/m 2 min 0 min 364 W/m 9,7 km/h (2 Bft) 100,00 %
31.08.2021 18:00 22,4 C 27,2 C 19,5 C 66 % 1024,8 hPa 0,0 l/m 2 min 0 min 363 W/m 12,9 km/h (3 Bft) 100,00 %
31.08.2021 18:02 22,4 C 27,2 C 20,0 C 65 % 1024,8 hPa 0,0 l/m 2 min 0 min 359 W/m 16,1 km/h (3 Bft) 100,00 %
31.08.2021 18:04 22,4 C 27,2 C 20,0 C 65 % 1024,9 hPa 0,0 l/m 2 min 0 min 355 W/m 16,1 km/h (3 Bft) 100,00 %
31.08.2021 18:08 22,4 C 23,9 C 19,5 C 65 % 1024,9 hPa 0,0 l/m 4 min 0 min 263 W/m 19,3 km/h (3 Bft) 97,85 %
31.08.2021 18:10 22,3 C 22,8 C 19,5 C 64 % 1024,9 hPa 0,0 l/m 0 min 0 min 74 W/m 19,3 km/h (3 Bft) 97,87 %
31.08.2021 18:12 22,1 C 22,2 C 18,9 C 65 % 1024,9 hPa 0,0 l/m 0 min 0 min 70 W/m 9,7 km/h (2 Bft) 97,87 %
31.08.2021 18:14 22,0 C 21,7 C 18,9 C 65 % 1024,9 hPa 0,0 l/m 0 min 0 min 71 W/m 9,7 km/h (2 Bft) 95,74 %
31.08.2021 18:16 21,9 C 21,7 C 18,4 C 66 % 1024,9 hPa 0,0 l/m 0 min 0 min 66 W/m 12,9 km/h (3 Bft) 97,87 %
31.08.2021 18:18 21,8 C 21,1 C 18,4 C 66 % 1024,9 hPa 0,0 l/m 0 min 0 min 63 W/m 6,4 km/h (2 Bft) 95,74 %
31.08.2021 18:20 21,7 C 21,1 C 18,4 C 67 % 1024,9 hPa 0,0 l/m 0 min 0 min 67 W/m 12,9 km/h (3 Bft) 97,83 %
31.08.2021 18:22 21,6 C 21,1 C 18,4 C 67 % 1024,8 hPa 0,0 l/m 0 min 0 min 75 W/m 9,7 km/h (2 Bft) 97,87 %
31.08.2021 18:24 21,6 C 22,2 C 18,4 C 68 % 1024,8 hPa 0,0 l/m 2 min 0 min 170 W/m 6,4 km/h (2 Bft) 97,87 %
31.08.2021 18:26 21,5 C 22,8 C 18,4 C 67 % 1024,9 hPa 0,0 l/m 0 min 0 min 142 W/m 19,3 km/h (3 Bft) 97,87 %
31.08.2021 18:28 21,5 C 24,4 C 18,4 C 68 % 1024,9 hPa 0,0 l/m 2 min 0 min 238 W/m 6,4 km/h (2 Bft) 95,74 %
31.08.2021 18:30 21,5 C 24,4 C 18,9 C 68 % 1024,9 hPa 0,0 l/m 2 min 0 min 224 W/m 12,9 km/h (3 Bft) 97,83 %
31.08.2021 18:32 21,5 C 23,9 C 18,9 C 67 % 1024,8 hPa 0,0 l/m 2 min 0 min 174 W/m 12,9 km/h (3 Bft) 97,87 %
31.08.2021 18:34 21,5 C 23,9 C 18,9 C 67 % 1024,8 hPa 0,0 l/m 2 min 0 min 154 W/m 12,9 km/h (3 Bft) 97,87 %
31.08.2021 18:36 21,5 C 24,4 C 18,9 C 67 % 1024,9 hPa 0,0 l/m 2 min 0 min 210 W/m 12,9 km/h (3 Bft) 95,74 %
31.08.2021 18:38 21,6 C 24,4 C 18,9 C 67 % 1024,9 hPa 0,0 l/m 2 min 0 min 199 W/m 9,7 km/h (2 Bft) 95,74 %
31.08.2021 18:40 21,6 C 23,3 C 18,9 C 67 % 1024,8 hPa 0,0 l/m 0 min 0 min 107 W/m 12,9 km/h (3 Bft) 97,87 %
31.08.2021 18:42 21,6 C 23,9 C 18,9 C 67 % 1024,9 hPa 0,0 l/m 2 min 0 min 168 W/m 9,7 km/h (2 Bft) 97,83 %
31.08.2021 18:44 21,6 C 23,3 C 18,9 C 68 % 1024,8 hPa 0,0 l/m 2 min 0 min 201 W/m 12,9 km/h (3 Bft) 100,00 %
31.08.2021 18:46 21,5 C 22,8 C 18,9 C 67 % 1024,8 hPa 0,0 l/m 0 min 0 min 111 W/m 22,5 km/h (4 Bft) 97,87 %
31.08.2021 18:48 21,5 C 22,2 C 18,9 C 68 % 1024,8 hPa 0,0 l/m 0 min 0 min 94 W/m 9,7 km/h (2 Bft) 97,87 %
31.08.2021 18:50 21,5 C 21,7 C 18,9 C 68 % 1024,8 hPa 0,0 l/m 0 min 0 min 86 W/m 12,9 km/h (3 Bft) 97,87 %
31.08.2021 18:52 21,5 C 21,7 C 18,4 C 68 % 1024,8 hPa 0,0 l/m 0 min 0 min 79 W/m 6,4 km/h (2 Bft) 95,74 %
31.08.2021 18:54 21,5 C 21,7 C 18,4 C 68 % 1024,8 hPa 0,0 l/m 0 min 0 min 74 W/m 12,9 km/h (3 Bft) 97,83 %
31.08.2021 18:56 21,4 C 21,1 C 18,4 C 69 % 1024,8 hPa 0,0 l/m 0 min 0 min 70 W/m 9,7 km/h (2 Bft) 95,74 %
31.08.2021 18:58 21,4 C 21,1 C 18,4 C 69 % 1024,8 hPa 0,0 l/m 0 min 0 min 68 W/m 12,9 km/h (3 Bft) 93,62 %
31.08.2021 19:00 21,3 C 21,1 C 18,4 C 69 % 1024,8 hPa 0,0 l/m 0 min 0 min 66 W/m 16,1 km/h (3 Bft) 95,74 %
31.08.2021 19:02 21,3 C 21,1 C 18,4 C 69 % 1024,8 hPa 0,0 l/m 0 min 0 min 63 W/m 9,7 km/h (2 Bft) 96,23 %
31.08.2021 19:04 21,2 C 20,6 C 17,8 C 69 % 1024,8 hPa 0,0 l/m 0 min 0 min 61 W/m 6,4 km/h (2 Bft) 95,45 %
31.08.2021 19:06 21,1 C 20,6 C 17,8 C 69 % 1024,8 hPa 0,0 l/m 0 min 0 min 58 W/m 6,4 km/h (2 Bft) 93,62 %
31.08.2021 19:08 21,1 C 20,6 C 17,8 C 69 % 1024,8 hPa 0,0 l/m 0 min 0 min 54 W/m 6,4 km/h (2 Bft) 95,74 %
31.08.2021 19:10 21,1 C 20,6 C 17,8 C 70 % 1024,8 hPa 0,0 l/m 0 min 0 min 53 W/m 12,9 km/h (3 Bft) 95,74 %
31.08.2021 19:12 21,0 C 20,6 C 17,8 C 70 % 1024,8 hPa 0,0 l/m 0 min 0 min 52 W/m 12,9 km/h (3 Bft) 91,49 %
31.08.2021 19:14 21,0 C 20,0 C 17,8 C 70 % 1024,8 hPa 0,0 l/m 0 min 0 min 53 W/m 9,7 km/h (2 Bft) 93,62 %
31.08.2021 19:16 21,0 C 20,0 C 17,8 C 70 % 1024,8 hPa 0,0 l/m 0 min 0 min 52 W/m 6,4 km/h (2 Bft) 95,65 %
31.08.2021 19:18 20,9 C 20,0 C 17,8 C 71 % 1024,9 hPa 0,0 l/m 0 min 0 min 51 W/m 12,9 km/h (3 Bft) 95,74 %
31.08.2021 19:20 20,9 C 20,0 C 17,3 C 71 % 1024,9 hPa 0,0 l/m 0 min 0 min 48 W/m 9,7 km/h (2 Bft) 95,74 %
31.08.2021 19:22 20,8 C 20,0 C 17,3 C 71 % 1024,8 hPa 0,0 l/m 0 min 0 min 48 W/m 12,9 km/h (3 Bft) 93,62 %
31.08.2021 19:24 20,8 C 20,0 C 17,3 C 71 % 1024,8 hPa 0,0 l/m 0 min 0 min 45 W/m 6,4 km/h (2 Bft) 95,74 %
31.08.2021 19:26 20,8 C 20,0 C 17,3 C 72 % 1024,9 hPa 0,0 l/m 0 min 0 min 42 W/m 9,7 km/h (2 Bft) 95,74 %
31.08.2021 19:28 20,8 C 20,0 C 17,3 C 72 % 1024,9 hPa 0,0 l/m 0 min 0 min 36 W/m 9,7 km/h (2 Bft) 95,65 %
31.08.2021 19:30 20,7 C 20,0 C 17,3 C 71 % 1024,9 hPa 0,0 l/m 0 min 0 min 33 W/m 6,4 km/h (2 Bft) 93,62 %
31.08.2021 19:32 20,6 C 19,4 C 17,3 C 72 % 1024,9 hPa 0,0 l/m 0 min 0 min 32 W/m 12,9 km/h (3 Bft) 95,74 %
31.08.2021 19:34 20,6 C 19,4 C 17,3 C 71 % 1024,9 hPa 0,0 l/m 0 min 0 min 32 W/m 9,7 km/h (2 Bft) 95,74 %
31.08.2021 19:36 20,6 C 19,4 C 17,3 C 72 % 1025,0 hPa 0,0 l/m 0 min 0 min 32 W/m 9,7 km/h (2 Bft) 97,87 %
31.08.2021 19:38 20,5 C 19,4 C 17,3 C 72 % 1025,0 hPa 0,0 l/m 0 min 0 min 31 W/m 19,3 km/h (3 Bft) 100,00 %
31.08.2021 19:40 20,5 C 19,4 C 17,3 C 72 % 1025,0 hPa 0,0 l/m 0 min 0 min 29 W/m 16,1 km/h (3 Bft) 97,83 %
31.08.2021 19:42 20,4 C 19,4 C 17,3 C 72 % 1025,0 hPa 0,0 l/m 0 min 0 min 26 W/m 9,7 km/h (2 Bft) 100,00 %
31.08.2021 19:44 20,3 C 19,4 C 16,7 C 72 % 1024,9 hPa 0,0 l/m 0 min 0 min 25 W/m 9,7 km/h (2 Bft) 100,00 %
31.08.2021 19:46 20,3 C 19,4 C 16,7 C 73 % 1025,0 hPa 0,0 l/m 0 min 0 min 23 W/m 0,0 km/h (0 Bft) 100,00 %
31.08.2021 19:48 20,2 C 18,9 C 16,7 C 73 % 1024,9 hPa 0,0 l/m 0 min 0 min 22 W/m 12,9 km/h (3 Bft) 97,87 %
31.08.2021 19:50 20,2 C 18,9 C 16,7 C 73 % 1025,0 hPa 0,0 l/m 0 min 0 min 21 W/m 9,7 km/h (2 Bft) 100,00 %
31.08.2021 19:52 20,1 C 18,9 C 16,7 C 73 % 1025,0 hPa 0,0 l/m 0 min 0 min 21 W/m 6,4 km/h (2 Bft) 100,00 %
31.08.2021 19:54 20,1 C 18,9 C 16,7 C 74 % 1025,0 hPa 0,0 l/m 0 min 0 min 20 W/m 9,7 km/h (2 Bft) 97,87 %
31.08.2021 19:56 20,1 C 18,9 C 16,7 C 74 % 1025,0 hPa 0,0 l/m 0 min 0 min 19 W/m 9,7 km/h (2 Bft) 97,87 %
31.08.2021 19:58 20,0 C 18,9 C 16,7 C 74 % 1025,0 hPa 0,0 l/m 0 min 0 min 18 W/m 6,4 km/h (2 Bft) 97,87 %
31.08.2021 20:00 20,0 C 18,9 C 16,7 C 74 % 1025,0 hPa 0,0 l/m 0 min 0 min 17 W/m 9,7 km/h (2 Bft) 97,87 %
31.08.2021 20:02 19,9 C 18,9 C 16,1 C 74 % 1025,0 hPa 0,0 l/m 0 min 0 min 14 W/m 6,4 km/h (2 Bft) 97,83 %
31.08.2021 20:04 19,9 C 18,3 C 16,1 C 75 % 1025,0 hPa 0,0 l/m 0 min 0 min 14 W/m 6,4 km/h (2 Bft) 100,00 %
31.08.2021 20:06 19,8 C 18,3 C 16,1 C 75 % 1025,1 hPa 0,0 l/m 0 min 0 min 12 W/m 3,2 km/h (1 Bft) 100,00 %
31.08.2021 20:08 19,8 C 18,3 C 16,1 C 75 % 1025,1 hPa 0,0 l/m 0 min 0 min 12 W/m 9,7 km/h (2 Bft) 100,00 %
31.08.2021 20:10 19,6 C 18,3 C 16,1 C 76 % 1025,1 hPa 0,0 l/m 0 min 0 min 11 W/m 6,4 km/h (2 Bft) 100,00 %
31.08.2021 20:12 19,6 C 18,3 C 16,1 C 76 % 1025,2 hPa 0,0 l/m 0 min 0 min 9 W/m 6,4 km/h (2 Bft) 95,74 %
31.08.2021 20:14 19,5 C 18,3 C 16,1 C 76 % 1025,2 hPa 0,0 l/m 0 min 0 min 9 W/m 12,9 km/h (3 Bft) 93,48 %
31.08.2021 20:16 19,5 C 18,3 C 16,1 C 76 % 1025,2 hPa 0,0 l/m 0 min 0 min 8 W/m 9,7 km/h (2 Bft) 95,74 %
31.08.2021 20:18 19,4 C 18,3 C 16,1 C 77 % 1025,2 hPa 0,0 l/m 0 min 0 min 7 W/m 16,1 km/h (3 Bft) 97,87 %
31.08.2021 20:20 19,3 C 17,8 C 16,1 C 77 % 1025,3 hPa 0,0 l/m 0 min 0 min 5 W/m 9,7 km/h (2 Bft) 97,87 %
31.08.2021 20:22 19,2 C 17,8 C 16,1 C 78 % 1025,3 hPa 0,0 l/m 0 min 0 min 5 W/m 22,5 km/h (4 Bft) 97,87 %
31.08.2021 20:24 19,1 C 17,8 C 16,1 C 78 % 1025,3 hPa 0,0 l/m 0 min 0 min 3 W/m 9,7 km/h (2 Bft) 97,87 %
31.08.2021 20:26 19,1 C 17,8 C 15,6 C 78 % 1025,3 hPa 0,0 l/m 0 min 0 min 0 W/m 9,7 km/h (2 Bft) 93,48 %
31.08.2021 20:28 19,0 C 17,8 C 15,6 C 79 % 1025,4 hPa 0,0 l/m 0 min 0 min 0 W/m 6,4 km/h (2 Bft) 97,87 %
31.08.2021 20:30 19,0 C 17,8 C 15,6 C 79 % 1025,5 hPa 0,0 l/m 0 min 0 min 0 W/m 6,4 km/h (2 Bft) 97,87 %
31.08.2021 20:32 19,0 C 17,8 C 15,6 C 79 % 1025,4 hPa 0,0 l/m 0 min 0 min 0 W/m 6,4 km/h (2 Bft) 97,87 %
31.08.2021 20:34 18,9 C 17,8 C 15,6 C 79 % 1025,5 hPa 0,0 l/m 0 min 0 min 0 W/m 9,7 km/h (2 Bft) 97,87 %
31.08.2021 20:36 18,9 C 17,8 C 15,6 C 80 % 1025,5 hPa 0,0 l/m 0 min 0 min 0 W/m 6,4 km/h (2 Bft) 95,74 %
31.08.2021 20:38 18,8 C 17,8 C 15,6 C 80 % 1025,5 hPa 0,0 l/m 0 min 0 min 0 W/m 9,7 km/h (2 Bft) 97,83 %
31.08.2021 20:40 18,8 C 17,8 C 15,6 C 80 % 1025,5 hPa 0,0 l/m 0 min 0 min 0 W/m 22,5 km/h (4 Bft) 96,36 %
31.08.2021 20:42 18,7 C 17,8 C 15,6 C 80 % 1025,6 hPa 0,0 l/m 0 min 0 min 0 W/m 3,2 km/h (1 Bft) 97,87 %
31.08.2021 20:44 18,7 C 17,8 C 15,6 C 80 % 1025,6 hPa 0,0 l/m 0 min 0 min 0 W/m 6,4 km/h (2 Bft) 100,00 %
31.08.2021 20:46 18,6 C 17,8 C 15,6 C 81 % 1025,6 hPa 0,0 l/m 0 min 0 min 0 W/m 12,9 km/h (3 Bft) 100,00 %
31.08.2021 20:48 18,6 C 17,8 C 15,6 C 81 % 1025,6 hPa 0,0 l/m 0 min 0 min 0 W/m 9,7 km/h (2 Bft) 100,00 %
31.08.2021 20:50 18,5 C 17,2 C 15,6 C 81 % 1025,7 hPa 0,0 l/m 0 min 0 min 0 W/m 9,7 km/h (2 Bft) 97,87 %
31.08.2021 20:52 18,5 C 17,2 C 15,6 C 81 % 1025,7 hPa 0,0 l/m 0 min 0 min 0 W/m 9,7 km/h (2 Bft) 100,00 %
31.08.2021 20:54 18,4 C 17,2 C 15,6 C 81 % 1025,7 hPa 0,0 l/m 0 min 0 min 0 W/m 6,4 km/h (2 Bft) 100,00 %
31.08.2021 20:56 18,4 C 17,2 C 15,6 C 81 % 1025,7 hPa 0,0 l/m 0 min 0 min 0 W/m 12,9 km/h (3 Bft) 100,00 %
31.08.2021 20:58 18,3 C 17,2 C 15,6 C 81 % 1025,8 hPa 0,0 l/m 0 min 0 min 0 W/m 19,3 km/h (3 Bft) 100,00 %
31.08.2021 21:00 18,3 C 17,2 C 15,6 C 82 % 1025,8 hPa 0,0 l/m 0 min 0 min 0 W/m 22,5 km/h (4 Bft) 100,00 %
31.08.2021 21:02 18,2 C 17,2 C 15,6 C 82 % 1025,9 hPa 0,0 l/m 0 min 0 min 0 W/m 16,1 km/h (3 Bft) 100,00 %
31.08.2021 21:04 18,2 C 17,2 C 15,6 C 82 % 1025,9 hPa 0,0 l/m 0 min 0 min 0 W/m 12,9 km/h (3 Bft) 100,00 %
31.08.2021 21:06 18,1 C 17,2 C 15,0 C 82 % 1025,9 hPa 0,0 l/m 0 min 0 min 0 W/m 6,4 km/h (2 Bft) 100,00 %
31.08.2021 21:08 18,1 C 17,2 C 15,0 C 82 % 1025,9 hPa 0,0 l/m 0 min 0 min 0 W/m 16,1 km/h (3 Bft) 97,87 %
31.08.2021 21:10 18,0 C 17,2 C 15,0 C 82 % 1025,9 hPa 0,0 l/m 0 min 0 min 0 W/m 19,3 km/h (3 Bft) 100,00 %
31.08.2021 21:12 18,0 C 17,2 C 15,0 C 83 % 1026,0 hPa 0,0 l/m 0 min 0 min 0 W/m 22,5 km/h (4 Bft) 100,00 %
31.08.2021 21:14 18,0 C 16,7 C 15,0 C 83 % 1026,0 hPa 0,0 l/m 0 min 0 min 0 W/m 19,3 km/h (3 Bft) 97,87 %
31.08.2021 21:16 17,9 C 16,7 C 15,0 C 83 % 1026,1 hPa 0,0 l/m 0 min 0 min 0 W/m 16,1 km/h (3 Bft) 97,87 %
31.08.2021 21:18 17,9 C 16,7 C 15,0 C 83 % 1026,1 hPa 0,0 l/m 0 min 0 min 0 W/m 16,1 km/h (3 Bft) 97,87 %
31.08.2021 21:20 17,8 C 16,7 C 15,0 C 83 % 1026,1 hPa 0,0 l/m 0 min 0 min 0 W/m 12,9 km/h (3 Bft) 100,00 %
31.08.2021 21:22 17,8 C 16,7 C 15,0 C 83 % 1026,1 hPa 0,0 l/m 0 min 0 min 0 W/m 22,5 km/h (4 Bft) 100,00 %
31.08.2021 21:24 17,6 C 16,7 C 15,0 C 83 % 1026,1 hPa 0,0 l/m 0 min 0 min 0 W/m 12,9 km/h (3 Bft) 95,65 %
31.08.2021 21:26 17,6 C 16,7 C 15,0 C 83 % 1026,0 hPa 0,0 l/m 0 min 0 min 0 W/m 9,7 km/h (2 Bft) 97,87 %
31.08.2021 21:28 17,5 C 16,7 C 15,0 C 84 % 1026,1 hPa 0,0 l/m 0 min 0 min 0 W/m 19,3 km/h (3 Bft) 100,00 %
31.08.2021 21:30 17,5 C 16,7 C 15,0 C 84 % 1026,1 hPa 0,0 l/m 0 min 0 min 0 W/m 12,9 km/h (3 Bft) 100,00 %
31.08.2021 21:32 17,5 C 16,7 C 14,5 C 84 % 1026,1 hPa 0,0 l/m 0 min 0 min 0 W/m 16,1 km/h (3 Bft) 97,87 %
31.08.2021 21:34 17,4 C 16,7 C 14,5 C 84 % 1026,1 hPa 0,0 l/m 0 min 0 min 0 W/m 16,1 km/h (3 Bft) 97,87 %
31.08.2021 21:36 17,4 C 16,7 C 14,5 C 84 % 1026,2 hPa 0,0 l/m 0 min 0 min 0 W/m 12,9 km/h (3 Bft) 97,83 %
31.08.2021 21:38 17,3 C 16,7 C 14,5 C 84 % 1026,1 hPa 0,0 l/m 0 min 0 min 0 W/m 16,1 km/h (3 Bft) 97,87 %
31.08.2021 21:40 17,3 C 16,1 C 14,5 C 84 % 1026,2 hPa 0,0 l/m 0 min 0 min 0 W/m 12,9 km/h (3 Bft) 95,74 %
31.08.2021 21:42 17,3 C 16,1 C 14,5 C 85 % 1026,2 hPa 0,0 l/m 0 min 0 min 0 W/m 9,7 km/h (2 Bft) 95,74 %
31.08.2021 21:44 17,2 C 16,1 C 14,5 C 85 % 1026,2 hPa 0,0 l/m 0 min 0 min 0 W/m 16,1 km/h (3 Bft) 95,74 %
31.08.2021 21:46 17,1 C 16,1 C 14,5 C 85 % 1026,3 hPa 0,0 l/m 0 min 0 min 0 W/m 12,9 km/h (3 Bft) 95,74 %
31.08.2021 21:48 17,1 C 16,1 C 14,5 C 85 % 1026,3 hPa 0,0 l/m 0 min 0 min 0 W/m 16,1 km/h (3 Bft) 95,65 %
31.08.2021 21:50 17,1 C 16,1 C 14,5 C 85 % 1026,3 hPa 0,0 l/m 0 min 0 min 0 W/m 12,9 km/h (3 Bft) 93,62 %
31.08.2021 21:52 17,0 C 16,1 C 14,5 C 85 % 1026,3 hPa 0,0 l/m 0 min 0 min 0 W/m 19,3 km/h (3 Bft) 95,74 %
31.08.2021 21:54 17,0 C 16,1 C 14,5 C 85 % 1026,3 hPa 0,0 l/m 0 min 0 min 0 W/m 19,3 km/h (3 Bft) 93,62 %
31.08.2021 21:56 17,0 C 16,1 C 14,5 C 85 % 1026,3 hPa 0,0 l/m 0 min 0 min 0 W/m 9,7 km/h (2 Bft) 95,74 %
31.08.2021 21:58 16,9 C 16,1 C 14,5 C 85 % 1026,3 hPa 0,0 l/m 0 min 0 min 0 W/m 9,7 km/h (2 Bft) 95,74 %
31.08.2021 22:00 16,9 C 16,1 C 14,5 C 86 % 1026,3 hPa 0,0 l/m 0 min 0 min 0 W/m 9,7 km/h (2 Bft) 93,48 %
31.08.2021 22:02 16,8 C 15,6 C 13,9 C 86 % 1026,4 hPa 0,0 l/m 0 min 0 min 0 W/m 12,9 km/h (3 Bft) 93,62 %
31.08.2021 22:04 16,8 C 15,6 C 13,9 C 86 % 1026,4 hPa 0,0 l/m 0 min 0 min 0 W/m 12,9 km/h (3 Bft) 93,62 %
31.08.2021 22:06 16,7 C 15,6 C 13,9 C 86 % 1026,5 hPa 0,0 l/m 0 min 0 min 0 W/m 16,1 km/h (3 Bft) 91,49 %
31.08.2021 22:08 16,6 C 15,6 C 13,9 C 86 % 1026,5 hPa 0,0 l/m 0 min 0 min 0 W/m 6,4 km/h (2 Bft) 93,62 %
31.08.2021 22:10 16,6 C 15,6 C 13,9 C 86 % 1026,5 hPa 0,0 l/m 0 min 0 min 0 W/m 12,9 km/h (3 Bft) 93,62 %
31.08.2021 22:12 16,5 C 15,6 C 13,9 C 86 % 1026,5 hPa 0,0 l/m 0 min 0 min 0 W/m 9,7 km/h (2 Bft) 95,65 %
31.08.2021 22:14 16,5 C 15,6 C 13,9 C 87 % 1026,5 hPa 0,0 l/m 0 min 0 min 0 W/m 9,7 km/h (2 Bft) 95,74 %
31.08.2021 22:16 16,5 C 15,6 C 13,9 C 87 % 1026,5 hPa 0,0 l/m 0 min 0 min 0 W/m 16,1 km/h (3 Bft) 91,49 %
31.08.2021 22:18 16,4 C 15,6 C 13,9 C 87 % 1026,6 hPa 0,0 l/m 0 min 0 min 0 W/m 12,9 km/h (3 Bft) 93,62 %
31.08.2021 22:20 16,4 C 15,6 C 13,9 C 87 % 1026,5 hPa 0,0 l/m 0 min 0 min 0 W/m 16,1 km/h (3 Bft) 95,74 %
31.08.2021 22:22 16,3 C 15,0 C 13,9 C 87 % 1026,6 hPa 0,0 l/m 0 min 0 min 0 W/m 9,7 km/h (2 Bft) 95,74 %
31.08.2021 22:24 16,3 C 15,0 C 13,4 C 87 % 1026,6 hPa 0,0 l/m 0 min 0 min 0 W/m 9,7 km/h (2 Bft) 93,48 %
31.08.2021 22:26 16,2 C 15,0 C 13,9 C 87 % 1026,6 hPa 0,0 l/m 0 min 0 min 0 W/m 9,7 km/h (2 Bft) 95,74 %
31.08.2021 22:28 16,1 C 15,0 C 13,9 C 87 % 1026,7 hPa 0,0 l/m 0 min 0 min 0 W/m 9,7 km/h (2 Bft) 95,74 %
31.08.2021 22:30 16,1 C 15,0 C 13,4 C 88 % 1026,7 hPa 0,0 l/m 0 min 0 min 0 W/m 19,3 km/h (3 Bft) 93,62 %
31.08.2021 22:32 16,1 C 15,0 C 13,4 C 88 % 1026,7 hPa 0,0 l/m 0 min 0 min 0 W/m 9,7 km/h (2 Bft) 97,87 %
31.08.2021 22:34 16,0 C 15,0 C 13,4 C 88 % 1026,7 hPa 0,0 l/m 0 min 0 min 0 W/m 9,7 km/h (2 Bft) 97,83 %
31.08.2021 22:36 16,0 C 15,0 C 13,4 C 88 % 1026,7 hPa 0,0 l/m 0 min 0 min 0 W/m 9,7 km/h (2 Bft) 97,87 %
31.08.2021 22:38 16,0 C 15,0 C 13,4 C 88 % 1026,7 hPa 0,0 l/m 0 min 0 min 0 W/m 9,7 km/h (2 Bft) 97,87 %
31.08.2021 22:40 15,9 C 15,0 C 13,4 C 88 % 1026,7 hPa 0,0 l/m 0 min 0 min 0 W/m 9,7 km/h (2 Bft) 98,18 %
31.08.2021 22:42 15,9 C 15,0 C 13,4 C 88 % 1026,7 hPa 0,0 l/m 0 min 0 min 0 W/m 6,4 km/h (2 Bft) 97,87 %
31.08.2021 22:44 15,9 C 15,0 C 13,4 C 88 % 1026,8 hPa 0,0 l/m 0 min 0 min 0 W/m 12,9 km/h (3 Bft) 100,00 %
31.08.2021 22:46 15,8 C 15,0 C 13,4 C 88 % 1026,8 hPa 0,0 l/m 0 min 0 min 0 W/m 6,4 km/h (2 Bft) 100,00 %
31.08.2021 22:48 15,8 C 15,0 C 13,4 C 89 % 1026,8 hPa 0,0 l/m 0 min 0 min 0 W/m 6,4 km/h (2 Bft) 97,83 %
31.08.2021 22:50 15,8 C 15,0 C 13,4 C 89 % 1026,8 hPa 0,0 l/m 0 min 0 min 0 W/m 6,4 km/h (2 Bft) 100,00 %
31.08.2021 22:52 15,7 C 14,4 C 13,4 C 89 % 1026,9 hPa 0,0 l/m 0 min 0 min 0 W/m 6,4 km/h (2 Bft) 100,00 %
31.08.2021 22:54 15,6 C 14,4 C 13,4 C 89 % 1026,9 hPa 0,0 l/m 0 min 0 min 0 W/m 9,7 km/h (2 Bft) 100,00 %
31.08.2021 22:56 15,6 C 14,4 C 13,4 C 89 % 1026,9 hPa 0,0 l/m 0 min 0 min 0 W/m 3,2 km/h (1 Bft) 100,00 %
31.08.2021 22:58 15,6 C 14,4 C 13,4 C 89 % 1026,9 hPa 0,0 l/m 0 min 0 min 0 W/m 12,9 km/h (3 Bft) 100,00 %
31.08.2021 23:00 15,5 C 14,4 C 13,4 C 89 % 1026,9 hPa 0,0 l/m 0 min 0 min 0 W/m 9,7 km/h (2 Bft) 100,00 %
31.08.2021 23:02 15,5 C 14,4 C 13,4 C 89 % 1027,0 hPa 0,0 l/m 0 min 0 min 0 W/m 3,2 km/h (1 Bft) 100,00 %
31.08.2021 23:04 15,5 C 14,4 C 13,4 C 89 % 1027,0 hPa 0,0 l/m 0 min 0 min 0 W/m 3,2 km/h (1 Bft) 100,00 %
31.08.2021 23:06 15,5 C 14,4 C 13,4 C 89 % 1027,0 hPa 0,0 l/m 0 min 0 min 0 W/m 3,2 km/h (1 Bft) 100,00 %
31.08.2021 23:08 15,4 C 14,4 C 13,4 C 89 % 1027,0 hPa 0,0 l/m 0 min 0 min 0 W/m 9,7 km/h (2 Bft) 100,00 %
31.08.2021 23:10 15,4 C 14,4 C 13,4 C 89 % 1027,0 hPa 0,0 l/m 0 min 0 min 0 W/m 9,7 km/h (2 Bft) 100,00 %
31.08.2021 23:12 15,4 C 14,4 C 13,4 C 90 % 1027,0 hPa 0,0 l/m 0 min 0 min 0 W/m 9,7 km/h (2 Bft) 100,00 %
31.08.2021 23:14 15,4 C 14,4 C 13,4 C 90 % 1027,0 hPa 0,0 l/m 0 min 0 min 0 W/m 9,7 km/h (2 Bft) 100,00 %
31.08.2021 23:16 15,3 C 14,4 C 12,8 C 90 % 1027,0 hPa 0,0 l/m 0 min 0 min 0 W/m 3,2 km/h (1 Bft) 100,00 %
31.08.2021 23:18 15,3 C 14,4 C 12,8 C 90 % 1027,0 hPa 0,0 l/m 0 min 0 min 0 W/m 3,2 km/h (1 Bft) 100,00 %
31.08.2021 23:20 15,3 C 14,4 C 12,8 C 90 % 1027,0 hPa 0,0 l/m 0 min 0 min 0 W/m 3,2 km/h (1 Bft) 100,00 %
31.08.2021 23:22 15,3 C 14,4 C 12,8 C 90 % 1027,0 hPa 0,0 l/m 0 min 0 min 0 W/m 12,9 km/h (3 Bft) 100,00 %
31.08.2021 23:24 15,2 C 14,4 C 12,8 C 90 % 1027,0 hPa 0,0 l/m 0 min 0 min 0 W/m 3,2 km/h (1 Bft) 100,00 %
31.08.2021 23:26 15,2 C 14,4 C 12,8 C 90 % 1027,1 hPa 0,0 l/m 0 min 0 min 0 W/m 6,4 km/h (2 Bft) 100,00 %
31.08.2021 23:28 15,1 C 14,4 C 12,8 C 90 % 1027,0 hPa 0,0 l/m 0 min 0 min 0 W/m 6,4 km/h (2 Bft) 100,00 %
31.08.2021 23:30 15,1 C 14,4 C 12,8 C 90 % 1027,1 hPa 0,0 l/m 0 min 0 min 0 W/m 9,7 km/h (2 Bft) 97,87 %
31.08.2021 23:32 15,1 C 14,4 C 12,8 C 90 % 1027,1 hPa 0,0 l/m 0 min 0 min 0 W/m 6,4 km/h (2 Bft) 100,00 %
31.08.2021 23:34 15,1 C 14,4 C 12,8 C 90 % 1027,1 hPa 0,0 l/m 0 min 0 min 0 W/m 3,2 km/h (1 Bft) 100,00 %
31.08.2021 23:36 15,1 C 13,9 C 12,8 C 90 % 1027,1 hPa 0,0 l/m 0 min 0 min 0 W/m 6,4 km/h (2 Bft) 97,87 %
31.08.2021 23:38 15,0 C 13,9 C 12,8 C 91 % 1027,2 hPa 0,0 l/m 0 min 0 min 0 W/m 6,4 km/h (2 Bft) 100,00 %
31.08.2021 23:40 15,0 C 13,9 C 12,8 C 91 % 1027,2 hPa 0,0 l/m 0 min 0 min 0 W/m 6,4 km/h (2 Bft) 100,00 %
31.08.2021 23:42 15,0 C 13,9 C 12,8 C 91 % 1027,3 hPa 0,0 l/m 0 min 0 min 0 W/m 6,4 km/h (2 Bft) 97,87 %
31.08.2021 23:44 15,0 C 13,9 C 12,8 C 91 % 1027,3 hPa 0,0 l/m 0 min 0 min 0 W/m 3,2 km/h (1 Bft) 97,87 %
31.08.2021 23:46 15,0 C 13,9 C 12,8 C 91 % 1027,3 hPa 0,0 l/m 0 min 0 min 0 W/m 6,4 km/h (2 Bft) 100,00 %
31.08.2021 23:48 15,0 C 13,9 C 12,8 C 91 % 1027,3 hPa 0,0 l/m 0 min 0 min 0 W/m 6,4 km/h (2 Bft) 97,87 %
31.08.2021 23:50 14,9 C 13,9 C 12,8 C 91 % 1027,4 hPa 0,0 l/m 0 min 0 min 0 W/m 3,2 km/h (1 Bft) 97,83 %
31.08.2021 23:52 14,9 C 13,9 C 12,8 C 91 % 1027,3 hPa 0,0 l/m 0 min 0 min 0 W/m 3,2 km/h (1 Bft) 100,00 %
31.08.2021 23:54 14,9 C 13,9 C 12,8 C 91 % 1027,3 hPa 0,0 l/m 0 min 0 min 0 W/m 3,2 km/h (1 Bft) 97,87 %
31.08.2021 23:56 14,8 C 13,9 C 12,8 C 91 % 1027,4 hPa 0,0 l/m 0 min 0 min 0 W/m 6,4 km/h (2 Bft) 97,87 %
31.08.2021 23:58 14,8 C 13,9 C 12,8 C 91 % 1027,3 hPa 0,0 l/m 0 min 0 min 0 W/m 6,4 km/h (2 Bft) 97,87 %
_ Min-Zeit 04:38 03:20 04:28 15:12 00:00 - - - - 00:58 08:06
Minimum _ 13,5 C 12,8 C 12,3 C 64 % 1021,7 hPa - - - - 0,0 km/h (0 Bft) 78,72 %
_ Max-Zeit 17:36 17:04 12:20 07:06 23:50 00:00 18:08 00:00 12:36 17:08 00:10
Maximum _ 22,5 C 28,9 C 21,7 C 98 % 1027,4 hPa 0,0 l/m 4 min 0 min 954 W/m 32,2 km/h
N (5 Bft)
100,00 %
Durchschnitt _ 17,1 C 17,3 C 15,5 C 85 % 1024,6 hPa #0,0 l/m #4:36 h #0 min. 270 W/m 9,9 km/h (2 Bft) 97,48 %
© 2021 W. Hausmann